M I D A S
Marine Information and Data Acquisition System
Tripno 1743 of the Zeeleeuw from 2009-07-31 09:58:22 to 2009-07-31 15:18:02
Back to CruiseResearch ActivitiesStationsMapUnderway DataData graphs

EquipmentUnitsComment
TimeDGPSUTC
LatitudeDGPSDM.mWGS84
LongitudeDGPSDM.mWGS84
TemperatureSBE03/SBE38deg celciusITS90
ConductivitySBE21S/mITS90
SalinitySBE21 Practical Salinity Units
ChlorophylAChelsea fluorimeterg/lCalibrated in Aceton
Missing or incorrect values are displayed as -999
Sea surface data collected by the RV Zeeleeuw from 2009-07-31 07:15:07 to 2009-07-31 15:25:39
                                                                                    Next 1000 lines
Time Latitude Longitude Temperature Conductivity Salinity ChlorophylA
2009-07-31 07:15:17 51°13.664 2°55.96 21.0705 1.035966 6.854257 11.919156
2009-07-31 07:15:22 51°13.664 2°55.96 21.0697 1.042769 6.902912 11.919156
2009-07-31 07:15:27 51°13.664 2°55.96 21.0723 1.045243 6.920564 11.919156
2009-07-31 07:15:32 51°13.664 2°55.96 21.075 1.045243 6.920564 11.919156
2009-07-31 07:15:37 51°13.664 2°55.96 21.0763 1.039058 6.876705 11.919156
2009-07-31 07:15:42 51°13.664 2°55.96 21.0745 1.043388 6.90759 11.919156
2009-07-31 07:15:47 51°13.665 2°55.96 21.0729 1.041223 6.892279 11.919156
2009-07-31 07:15:53 51°13.665 2°55.96 21.0715 1.031842 6.825521 11.919156
2009-07-31 07:15:57 51°13.665 2°55.96 21.0717 1.03009 6.813162 11.919156
2009-07-31 07:16:02 51°13.665 2°55.96 21.0728 1.03009 6.813162 11.919156
2009-07-31 07:16:07 51°13.665 2°55.961 21.071 1.039883 6.882985 11.919156
2009-07-31 07:16:12 51°13.665 2°55.961 21.0714 1.027822 6.797133 11.919156
2009-07-31 07:16:17 51°13.665 2°55.96 21.0721 1.028235 6.800202 11.919156
2009-07-31 07:16:22 51°13.665 2°55.961 21.0731 1.029162 6.806944 11.919156
2009-07-31 07:16:27 51°13.665 2°55.961 21.0732 1.034523 6.845286 11.919156
2009-07-31 07:16:32 51°13.665 2°55.961 21.0735 1.034523 6.845286 11.919156
2009-07-31 07:16:37 51°13.665 2°55.961 21.0741 1.021844 6.755064 11.919156
2009-07-31 07:16:42 51°13.665 2°55.961 21.0742 1.034935 6.848489 11.919156
2009-07-31 07:16:47 51°13.665 2°55.961 21.075 1.033492 6.838331 11.919156
2009-07-31 07:16:52 51°13.665 2°55.961 21.0741 1.033389 6.837727 11.919156
2009-07-31 07:16:57 51°13.665 2°55.961 21.0721 1.035656 6.853899 11.919156
2009-07-31 07:17:02 51°13.665 2°55.961 21.0722 1.035656 6.853899 11.919156
2009-07-31 07:17:08 51°13.665 2°55.961 21.0725 1.029678 6.811404 11.919156
2009-07-31 07:17:12 51°13.665 2°55.961 21.0735 1.027925 6.799045 11.919156
2009-07-31 07:17:17 51°13.665 2°55.96 21.0739 1.032358 6.830773 11.919156
2009-07-31 07:17:22 51°13.665 2°55.96 21.0731 1.037306 6.86619 11.919156
2009-07-31 07:17:27 51°13.665 2°55.96 21.0733 1.016071 6.714997 11.919156
2009-07-31 07:17:32 51°13.665 2°55.96 21.0714 1.016071 6.714997 11.919156
2009-07-31 07:17:37 51°13.665 2°55.96 21.0725 1.034316 6.845002 11.884332
2009-07-31 07:17:42 51°13.665 2°55.96 21.0724 1.027307 6.795161 11.919156
2009-07-31 07:17:47 51°13.665 2°55.96 21.0738 1.027822 6.798965 11.919156
2009-07-31 07:17:52 51°13.665 2°55.96 21.0712 1.025451 6.7822 11.919156
2009-07-31 07:17:57 51°13.665 2°55.96 21.0724 1.032976 6.835972 11.919156
2009-07-31 07:18:02 51°13.665 2°55.96 21.0724 1.032976 6.835972 11.919156
2009-07-31 07:18:07 51°13.665 2°55.96 21.0719 1.025864 6.785269 11.919156
2009-07-31 07:18:12 51°13.665 2°55.96 21.0731 1.041429 6.896405 11.919156
2009-07-31 07:18:17 51°13.665 2°55.96 21.0738 1.030915 6.821535 11.919156
2009-07-31 07:18:22 51°13.665 2°55.96 21.0745 1.029265 6.809907 11.919156
2009-07-31 07:18:27 51°13.665 2°55.96 21.075 1.034007 6.843719 11.884332
2009-07-31 07:18:33 51°13.665 2°55.96 21.0752 1.034007 6.843719 11.884332
2009-07-31 07:18:37 51°13.665 2°55.96 21.076 1.039264 6.881487 11.884332
2009-07-31 07:18:42 51°13.665 2°55.96 21.0751 1.027925 6.800617 11.884332
2009-07-31 07:18:47 51°13.665 2°55.96 21.0755 1.031636 6.827206 11.919156
2009-07-31 07:18:52 51°13.665 2°55.96 21.0771 1.027204 6.795735 11.919156
2009-07-31 07:18:57 51°13.664 2°55.96 21.0785 1.033904 6.843642 11.919156
2009-07-31 07:19:02 51°13.664 2°55.96 21.0789 1.033904 6.843642 11.919156
2009-07-31 07:19:07 51°13.664 2°55.96 21.08 1.035038 6.851863 11.919156
2009-07-31 07:19:12 51°13.664 2°55.96 21.0804 1.006794 6.650642 11.884332
2009-07-31 07:19:17 51°13.664 2°55.96 21.0767 1.015968 6.716073 11.884332
2009-07-31 07:19:22 51°13.664 2°55.96 21.0737 1.045037 6.923491 11.884332
2009-07-31 07:19:27 51°13.665 2°55.96 21.0735 1.032358 6.833141 11.884332
2009-07-31 07:19:32 51°13.665 2°55.96 21.0743 1.032358 6.833141 11.884332
2009-07-31 07:19:37 51°13.664 2°55.96 21.0765 1.035347 6.854597 11.884332
2009-07-31 07:19:42 51°13.665 2°55.96 21.0772 1.043285 6.911245 11.919156
2009-07-31 07:19:47 51°13.665 2°55.96 21.0778 1.034007 6.845301 11.884332
2009-07-31 07:19:52 51°13.665 2°55.96 21.0764 1.025452 6.78429 11.884332
2009-07-31 07:19:57 51°13.665 2°55.959 21.0773 1.036893 6.866026 11.884332
2009-07-31 07:20:02 51°13.664 2°55.959 21.0773 1.036893 6.866026 11.884332
2009-07-31 07:20:07 51°13.664 2°55.959 21.0779 1.022359 6.76251 11.884332
2009-07-31 07:20:12 51°13.664 2°55.959 21.0818 1.025967 6.788356 11.884332
2009-07-31 07:20:17 51°13.664 2°55.96 21.0835 1.026688 6.793631 11.884332
2009-07-31 07:20:22 51°13.664 2°55.96 21.0816 1.032667 6.836268 11.884332
2009-07-31 07:20:27 51°13.664 2°55.96 21.0814 1.030399 6.820224 11.884332
2009-07-31 07:20:32 51°13.664 2°55.96 21.0818 1.030399 6.820224 11.884332
2009-07-31 07:20:37 51°13.664 2°55.96 21.0824 1.039058 6.882137 11.884332
2009-07-31 07:20:42 51°13.664 2°55.96 21.081 1.038234 6.876384 11.884332
2009-07-31 07:20:47 51°13.664 2°55.96 21.0804 1.033801 6.844753 11.884332
2009-07-31 07:20:52 51°13.664 2°55.96 21.0804 1.026585 6.79342 11.884332
2009-07-31 07:20:57 51°13.664 2°55.96 21.0824 1.019576 6.743588 11.884332
2009-07-31 07:21:02 51°13.664 2°55.96 21.0847 1.019576 6.743588 11.884332
2009-07-31 07:21:07 51°13.664 2°55.959 21.0853 1.029678 6.815735 11.884332
2009-07-31 07:21:13 51°13.664 2°55.959 21.0835 1.024318 6.777644 11.884332
2009-07-31 07:21:17 51°13.664 2°55.959 21.0824 1.034316 6.848958 11.884332
2009-07-31 07:21:22 51°13.664 2°55.959 21.0822 1.038337 6.877914 11.884332
2009-07-31 07:21:27 51°13.664 2°55.959 21.0819 1.04514 6.926495 11.884332
2009-07-31 07:21:33 51°13.664 2°55.959 21.0803 1.04514 6.926495 11.884332
2009-07-31 07:21:37 51°13.664 2°55.959 21.0805 1.021225 6.755992 11.884332
2009-07-31 07:21:42 51°13.664 2°55.959 21.0817 1.026173 6.791396 11.884332
2009-07-31 07:21:47 51°13.664 2°55.959 21.0816 1.026895 6.796541 11.884332
2009-07-31 07:21:52 51°13.664 2°55.959 21.081 1.039677 6.888012 11.884332
2009-07-31 07:21:57 51°13.664 2°55.959 21.0818 1.023081 6.769609 11.884332
2009-07-31 07:22:02 51°13.664 2°55.959 21.082 1.023081 6.769609 11.884332
2009-07-31 07:22:07 51°13.664 2°55.959 21.0825 1.031121 6.827081 11.884332
2009-07-31 07:22:12 51°13.664 2°55.96 21.0836 1.024833 6.782364 11.884332
2009-07-31 07:22:17 51°13.664 2°55.96 21.0841 1.024524 6.780289 11.884332
2009-07-31 07:22:22 51°13.664 2°55.96 21.0833 1.008134 6.663514 11.884332
2009-07-31 07:22:27 51°13.664 2°55.96 21.0829 1.023596 6.773805 11.884332
2009-07-31 07:22:32 51°13.664 2°55.96 21.0848 1.023596 6.773805 11.884332
2009-07-31 07:22:37 51°13.664 2°55.96 21.0864 1.014938 6.712224 11.884332
2009-07-31 07:22:42 51°13.664 2°55.96 21.0877 1.019576 6.745277 11.884332
2009-07-31 07:22:47 51°13.664 2°55.96 21.0867 1.02205 6.763042 11.884332
2009-07-31 07:22:52 51°13.664 2°55.96 21.0849 1.024008 6.777268 11.884332
2009-07-31 07:22:57 51°13.664 2°55.96 21.0875 1.020916 6.75522 11.884332
2009-07-31 07:23:02 51°13.664 2°55.96 21.0868 1.020916 6.75522 11.884332
2009-07-31 07:23:07 51°13.664 2°55.96 21.0847 1.01937 6.744328 11.884332
2009-07-31 07:23:12 51°13.664 2°55.96 21.0861 1.021741 6.761359 11.884332
2009-07-31 07:23:17 51°13.664 2°55.96 21.0847 1.029884 6.819439 11.884332
2009-07-31 07:23:22 51°13.664 2°55.96 21.0845 1.033389 6.844581 11.884332
2009-07-31 07:23:27 51°13.664 2°55.96 21.0836 1.035553 6.860164 11.884332
2009-07-31 07:23:32 51°13.664 2°55.959 21.0829 1.035553 6.860164 11.884332
2009-07-31 07:23:37 51°13.664 2°55.959 21.0834 1.049985 6.96339 11.884332
2009-07-31 07:23:42 51°13.664 2°55.959 21.0859 1.033183 6.843505 11.884332
2009-07-31 07:23:47 51°13.664 2°55.959 21.0866 1.022978 6.770831 11.884332
2009-07-31 07:23:52 51°13.664 2°55.959 21.0866 1.028235 6.808328 11.884332
2009-07-31 07:23:57 51°13.664 2°55.959 21.0849 1.040501 6.896026 11.884332
2009-07-31 07:24:03 51°13.664 2°55.959 21.084 1.040501 6.896026 11.884332
2009-07-31 07:24:07 51°13.664 2°55.96 21.0826 1.021122 6.757862 11.884332
2009-07-31 07:24:12 51°13.664 2°55.96 21.081 1.032461 6.838882 11.884332
2009-07-31 07:24:17 51°13.664 2°55.96 21.0857 1.024936 6.785191 11.884332
2009-07-31 07:24:22 51°13.664 2°55.96 21.0841 1.032873 6.841957 11.884332
2009-07-31 07:24:27 51°13.664 2°55.96 21.0861 1.027513 6.803837 11.884332
2009-07-31 07:24:32 51°13.664 2°55.96 21.0874 1.027513 6.803837 11.884332
2009-07-31 07:24:37 51°13.664 2°55.959 21.0863 1.039471 6.889328 11.884332
2009-07-31 07:24:42 51°13.664 2°55.96 21.0871 1.028853 6.813529 11.884332
2009-07-31 07:24:47 51°13.664 2°55.959 21.0874 1.034626 6.854863 11.884332
2009-07-31 07:24:52 51°13.664 2°55.959 21.0875 1.032255 6.83807 11.884332
2009-07-31 07:24:57 51°13.662 2°55.958 21.0862 1.046583 6.940549 11.884332
2009-07-31 07:25:02 51°13.661 2°55.958 21.0858 1.046583 6.940549 11.884332
2009-07-31 07:25:07 51°13.66 2°55.958 21.0848 1.04246 6.911083 11.884332
2009-07-31 07:25:12 51°13.661 2°55.958 21.0881 1.036275 6.867037 11.884332
2009-07-31 07:25:17 51°13.662 2°55.959 21.0948 1.03679 6.87085 11.884332
2009-07-31 07:25:22 51°13.662 2°55.959 21.0949 1.035038 6.858468 11.884332
2009-07-31 07:25:27 51°13.663 2°55.959 21.0935 1.027307 6.803415 11.884332
2009-07-31 07:25:32 51°13.663 2°55.959 21.0887 1.027307 6.803415 11.884332
2009-07-31 07:25:37 51°13.663 2°55.959 21.0879 1.039264 6.888785 11.884332
2009-07-31 07:25:42 51°13.663 2°55.959 21.0869 1.030915 6.829295 11.884332
2009-07-31 07:25:47 51°13.662 2°55.959 21.0871 1.030399 6.825748 11.884332
2009-07-31 07:25:52 51°13.662 2°55.959 21.0868 1.036894 6.872249 11.884332
2009-07-31 07:25:57 51°13.661 2°55.958 21.0877 1.025452 6.7907 11.884332
2009-07-31 07:26:02 51°13.661 2°55.958 21.09 1.025452 6.7907 11.884332
2009-07-31 07:26:07 51°13.661 2°55.958 21.0908 1.03844 6.883426 11.884332
2009-07-31 07:26:12 51°13.66 2°55.958 21.0895 1.033492 6.848221 11.884332
2009-07-31 07:26:17 51°13.66 2°55.958 21.0908 1.045553 6.934519 11.884332
2009-07-31 07:26:22 51°13.66 2°55.958 21.0897 1.034729 6.857186 11.849508
2009-07-31 07:26:27 51°13.66 2°55.958 21.0885 1.030606 6.827878 11.884332
2009-07-31 07:26:33 51°13.66 2°55.958 21.087 1.030606 6.827878 11.884332
2009-07-31 07:26:37 51°13.66 2°55.958 21.0859 1.037306 6.875857 11.849508
2009-07-31 07:26:43 51°13.661 2°55.959 21.0875 1.031533 6.834765 11.884332
2009-07-31 07:26:47 51°13.661 2°55.959 21.0878 1.033904 6.851693 11.849508
2009-07-31 07:26:52 51°13.662 2°55.96 21.0889 1.038337 6.883486 11.884332
2009-07-31 07:26:57 51°13.662 2°55.96 21.0917 1.035863 6.865946 11.849508
2009-07-31 07:27:03 51°13.663 2°55.96 21.0916 1.035863 6.865946 11.849508
2009-07-31 07:27:07 51°13.663 2°55.96 21.092 1.038749 6.886698 11.884332
2009-07-31 07:27:12 51°13.663 2°55.96 21.0912 1.029781 6.822781 11.884332
2009-07-31 07:27:17 51°13.663 2°55.96 21.0917 1.035347 6.862529 11.849508
2009-07-31 07:27:22 51°13.662 2°55.96 21.0917 1.034214 6.854695 11.849508
2009-07-31 07:27:27 51°13.662 2°55.96 21.0915 1.037512 6.878258 11.884332
2009-07-31 07:27:32 51°13.662 2°55.96 21.0918 1.037512 6.878258 11.884332
2009-07-31 07:27:37 51°13.662 2°55.96 21.0917 1.035554 6.864399 11.849508
2009-07-31 07:27:42 51°13.662 2°55.96 21.0922 1.038955 6.888835 11.849508
2009-07-31 07:27:47 51°13.662 2°55.96 21.0905 1.022153 6.768866 11.849508
2009-07-31 07:27:52 51°13.662 2°55.959 21.0927 1.036687 6.872764 11.849508
2009-07-31 07:27:57 51°13.661 2°55.959 21.0919 1.018648 6.744125 11.849508
2009-07-31 07:28:02 51°13.661 2°55.958 21.0952 1.018648 6.744125 11.849508
2009-07-31 07:28:07 51°13.661 2°55.959 21.099 1.042048 6.911336 11.849508
2009-07-31 07:28:12 51°13.662 2°55.959 21.1023 1.041842 6.909995 11.849508
2009-07-31 07:28:17 51°13.663 2°55.96 21.1028 1.029781 6.823834 11.849508
2009-07-31 07:28:22 51°13.663 2°55.96 21.1004 1.033183 6.848258 11.849508
2009-07-31 07:28:27 51°13.664 2°55.96 21.0977 1.046687 6.944902 11.849508
2009-07-31 07:28:32 51°13.664 2°55.96 21.0959 1.046687 6.944902 11.849508
2009-07-31 07:28:37 51°13.664 2°55.96 21.096 1.034935 6.86104 11.849508
2009-07-31 07:28:42 51°13.664 2°55.96 21.0954 1.025246 6.791849 11.884332
2009-07-31 07:28:47 51°13.664 2°55.96 21.0945 1.021947 6.768439 11.849508
2009-07-31 07:28:53 51°13.664 2°55.96 21.0948 1.031946 6.839951 11.884332
2009-07-31 07:28:57 51°13.663 2°55.96 21.0939 1.027513 6.808431 11.884332
2009-07-31 07:29:02 51°13.663 2°55.96 21.0949 1.027513 6.808431 11.884332
2009-07-31 07:29:07 51°13.663 2°55.959 21.0956 1.028132 6.812847 11.849508
2009-07-31 07:29:13 51°13.663 2°55.959 21.097 1.026586 6.801939 11.849508
2009-07-31 07:29:17 51°13.662 2°55.959 21.0972 1.025246 6.792504 11.849508
2009-07-31 07:29:22 51°13.662 2°55.959 21.0969 1.020092 6.755853 11.849508
2009-07-31 07:29:27 51°13.662 2°55.959 21.0976 1.027719 6.810429 11.849508
2009-07-31 07:29:32 51°13.662 2°55.959 21.0959 1.027719 6.810429 11.849508
2009-07-31 07:29:37 51°13.662 2°55.959 21.0941 1.040914 6.904696 11.884332
2009-07-31 07:29:43 51°13.661 2°55.959 21.0948 1.021329 6.76494 11.849508
2009-07-31 07:29:47 51°13.662 2°55.959 21.0947 1.025555 6.795236 11.849508
2009-07-31 07:29:52 51°13.661 2°55.959 21.0936 1.015556 6.724017 11.849508
2009-07-31 07:29:57 51°13.661 2°55.959 21.0929 1.024936 6.790952 11.849508
2009-07-31 07:30:02 51°13.661 2°55.959 21.0904 1.024936 6.790952 11.849508
2009-07-31 07:30:07 51°13.661 2°55.959 21.0908 1.025658 6.796234 11.849508
2009-07-31 07:30:12 51°13.662 2°55.959 21.0912 1.021535 6.766933 11.849508
2009-07-31 07:30:17 51°13.662 2°55.959 21.0916 1.022669 6.775026 11.849508
2009-07-31 07:30:22 51°13.662 2°55.959 21.0923 1.03009 6.82815 11.849508
2009-07-31 07:30:27 51°13.663 2°55.96 21.0964 1.008444 6.673819 11.849508
2009-07-31 07:30:32 51°13.663 2°55.959 21.1 1.008444 6.673819 11.849508
2009-07-31 07:30:37 51°13.661 2°55.959 21.0984 1.017515 6.738638 11.849508
2009-07-31 07:30:42 51°13.659 2°55.958 21.0976 1.008753 6.676281 11.849508
2009-07-31 07:30:47 51°13.658 2°55.957 21.0987 1.028338 6.81616 11.849508
2009-07-31 07:30:52 51°13.658 2°55.957 21.0995 1.010196 6.686827 11.849508
2009-07-31 07:30:57 51°13.659 2°55.958 21.1017 1.018442 6.745648 11.849508
2009-07-31 07:31:02 51°13.659 2°55.958 21.1013 1.018442 6.745648 11.849508
2009-07-31 07:31:07 51°13.66 2°55.958 21.1016 1.01535 6.723715 11.849508
2009-07-31 07:31:12 51°13.66 2°55.959 21.1031 1.01669 6.733275 11.849508
2009-07-31 07:31:17 51°13.66 2°55.959 21.1011 1.006692 6.662228 11.849508
2009-07-31 07:31:22 51°13.66 2°55.959 21.1008 1.014113 6.71515 11.849508
2009-07-31 07:31:27 51°13.661 2°55.959 21.0999 1.020916 6.763825 11.849508
2009-07-31 07:31:33 51°13.662 2°55.96 21.0998 1.020916 6.763825 11.849508
2009-07-31 07:31:37 51°13.663 2°55.96 21.0992 1.025452 6.796337 11.849508
2009-07-31 07:31:42 51°13.662 2°55.96 21.0989 1.016072 6.729382 11.849508
2009-07-31 07:31:47 51°13.661 2°55.959 21.0995 1.02205 6.77218 11.849508
2009-07-31 07:31:53 51°13.66 2°55.959 21.0997 1.029884 6.828259 11.849508
2009-07-31 07:31:57 51°13.659 2°55.958 21.0998 1.026895 6.807037 11.849508
2009-07-31 07:32:02 51°13.659 2°55.959 21.1002 1.026895 6.807037 11.849508
2009-07-31 07:32:07 51°13.66 2°55.959 21.0979 1.035141 6.86609 11.849508
2009-07-31 07:32:13 51°13.66 2°55.959 21.0961 1.021535 6.768893 11.849508
2009-07-31 07:32:17 51°13.66 2°55.959 21.1053 1.030503 6.833073 11.849508
2009-07-31 07:32:23 51°13.661 2°55.959 21.1046 1.020195 6.759588 11.849508
2009-07-31 07:32:27 51°13.661 2°55.959 21.1045 1.0304 6.8326 11.849508
2009-07-31 07:32:32 51°13.661 2°55.959 21.104 1.0304 6.8326 11.849508
2009-07-31 07:32:37 51°13.662 2°55.959 21.1027 1.034214 6.859857 11.849508
2009-07-31 07:32:42 51°13.662 2°55.959 21.1026 1.034317 6.860726 11.849508
2009-07-31 07:32:47 51°13.662 2°55.96 21.1021 1.027926 6.815189 11.849508
2009-07-31 07:32:52 51°13.662 2°55.96 21.1004 1.046274 6.946511 11.849508
2009-07-31 07:32:57 51°13.662 2°55.96 21.1032 1.032977 6.851545 11.849508
2009-07-31 07:33:02 51°13.662 2°55.96 21.1035 1.032977 6.851545 11.849508
2009-07-31 07:33:07 51°13.662 2°55.96 21.1049 1.040811 6.907692 11.849508
2009-07-31 07:33:12 51°13.662 2°55.96 21.1074 1.035038 6.866414 11.849508
2009-07-31 07:33:17 51°13.662 2°55.96 21.1063 1.041017 6.9093 11.849508
2009-07-31 07:33:22 51°13.662 2°55.959 21.107 1.039162 6.896163 11.849508
2009-07-31 07:33:27 51°13.662 2°55.959 21.1064 1.02607 6.802723 11.849508
2009-07-31 07:33:32 51°13.662 2°55.959 21.1074 1.02607 6.802723 11.849508
2009-07-31 07:33:37 51°13.662 2°55.959 21.1044 1.005455 6.655596 11.849508
2009-07-31 07:33:42 51°13.662 2°55.959 21.108 1.038852 6.894217 11.849508
2009-07-31 07:33:47 51°13.662 2°55.96 21.1077 1.012773 6.708053 11.849508
2009-07-31 07:33:52 51°13.664 2°55.961 21.105 1.039058 6.895825 11.849508
2009-07-31 07:33:57 51°13.665 2°55.962 21.1047 1.017412 6.741286 11.849508
2009-07-31 07:34:02 51°13.666 2°55.962 21.1043 1.017412 6.741286 11.849508
2009-07-31 07:34:07 51°13.666 2°55.962 21.1072 1.024009 6.788653 11.849508
2009-07-31 07:34:12 51°13.666 2°55.962 21.1077 1.028544 6.821056 11.849508
2009-07-31 07:34:17 51°13.666 2°55.962 21.1081 1.02638 6.805721 11.849508
2009-07-31 07:34:22 51°13.665 2°55.962 21.1079 1.018649 6.750637 11.814684
2009-07-31 07:34:27 51°13.665 2°55.961 21.1074 1.033698 6.858159 11.849508
2009-07-31 07:34:33 51°13.663 2°55.96 21.1067 1.033698 6.858159 11.849508
2009-07-31 07:34:37 51°13.661 2°55.959 21.1065 1.033801 6.859029 11.849508
2009-07-31 07:34:42 51°13.661 2°55.959 21.1058 1.025967 6.803169 11.849508
2009-07-31 07:34:47 51°13.661 2°55.959 21.1056 1.027823 6.816559 11.849508
2009-07-31 07:34:52 51°13.661 2°55.959 21.106 1.026895 6.809929 11.849508
2009-07-31 07:34:57 51°13.661 2°55.959 21.1048 1.043285 6.927263 11.849508
2009-07-31 07:35:03 51°13.661 2°55.96 21.1041 1.043285 6.927263 11.849508
2009-07-31 07:35:07 51°13.661 2°55.96 21.1063 1.016278 6.734233 11.849508
2009-07-31 07:35:12 51°13.661 2°55.96 21.1083 1.025349 6.799145 11.849508
2009-07-31 07:35:17 51°13.662 2°55.96 21.1086 1.021535 6.772031 11.849508
2009-07-31 07:35:22 51°13.663 2°55.961 21.1091 1.01401 6.718436 11.849508
2009-07-31 07:35:27 51°13.664 2°55.962 21.1072 1.01401 6.718565 11.849508
2009-07-31 07:35:32 51°13.665 2°55.962 21.1047 1.01401 6.718565 11.849508
2009-07-31 07:35:37 51°13.664 2°55.962 21.1023 1.030606 6.83711 11.814684
2009-07-31 07:35:42 51°13.663 2°55.961 21.1015 1.020504 6.765061 11.849508
2009-07-31 07:35:47 51°13.663 2°55.961 21.1068 1.025452 6.800538 11.849508
2009-07-31 07:35:52 51°13.663 2°55.961 21.1112 1.012773 6.709996 11.849508
2009-07-31 07:35:57 51°13.662 2°55.96 21.1129 1.03174 6.845613 11.814684
2009-07-31 07:36:02 51°13.662 2°55.96 21.1125 1.03174 6.845613 11.814684
2009-07-31 07:36:07 51°13.662 2°55.96 21.1128 1.020607 6.76619 11.849508
2009-07-31 07:36:12 51°13.662 2°55.961 21.1122 1.01937 6.757486 11.814684
2009-07-31 07:36:17 51°13.663 2°55.961 21.1115 1.015144 6.727439 11.849508
2009-07-31 07:36:22 51°13.663 2°55.961 21.1114 1.024009 6.790752 11.814684
2009-07-31 07:36:27 51°13.663 2°55.961 21.1094 1.029575 6.830665 11.849508
2009-07-31 07:36:32 51°13.663 2°55.961 21.109 1.029575 6.830665 11.849508
2009-07-31 07:36:37 51°13.662 2°55.961 21.1088 1.034626 6.866915 11.849508
2009-07-31 07:36:42 51°13.661 2°55.96 21.1082 1.033183 6.856726 11.849508
2009-07-31 07:36:47 51°13.66 2°55.959 21.1094 1.022772 6.782438 11.849508
2009-07-31 07:36:52 51°13.66 2°55.959 21.1101 1.023493 6.787594 11.849508
2009-07-31 07:36:57 51°13.661 2°55.96 21.109 1.037306 6.886485 11.849508
2009-07-31 07:37:02 51°13.661 2°55.96 21.1085 1.037306 6.886485 11.849508
2009-07-31 07:37:07 51°13.661 2°55.96 21.1059 1.012361 6.70835 11.814684
2009-07-31 07:37:12 51°13.664 2°55.961 21.1078 1.023803 6.790197 11.849508
2009-07-31 07:37:17 51°13.662 2°55.961 21.1099 1.018339 6.751168 11.849508
2009-07-31 07:37:22 51°13.662 2°55.96 21.1119 1.010815 6.697572 11.849508
2009-07-31 07:37:27 51°13.661 2°55.96 21.1086 1.029678 6.832458 11.849508
2009-07-31 07:37:33 51°13.661 2°55.96 21.1094 1.029678 6.832458 11.849508
2009-07-31 07:37:37 51°13.661 2°55.96 21.1077 1.023081 6.785304 11.814684
2009-07-31 07:37:43 51°13.661 2°55.96 21.1082 1.022256 6.779542 11.814684
2009-07-31 07:37:47 51°13.661 2°55.96 21.1092 1.023184 6.786302 11.849508
2009-07-31 07:37:52 51°13.661 2°55.96 21.1124 1.046068 6.950136 11.849508
2009-07-31 07:37:57 51°13.661 2°55.96 21.1125 1.028544 6.824747 11.849508
2009-07-31 07:38:03 51°13.662 2°55.96 21.1139 1.028544 6.824747 11.849508
2009-07-31 07:38:07 51°13.662 2°55.96 21.1111 1.029369 6.830775 11.849508
2009-07-31 07:38:12 51°13.662 2°55.96 21.1261 1.015144 6.729259 11.849508
2009-07-31 07:38:17 51°13.662 2°55.96 21.1252 1.033801 6.862608 11.849508
2009-07-31 07:38:22 51°13.662 2°55.96 21.1219 1.027926 6.820721 11.849508
2009-07-31 07:38:27 51°13.663 2°55.961 21.1181 1.030503 6.83928 11.814684
2009-07-31 07:38:32 51°13.663 2°55.961 21.1149 1.030503 6.83928 11.814684
2009-07-31 07:38:37 51°13.663 2°55.961 21.1141 1.019576 6.76131 11.814684
2009-07-31 07:38:42 51°13.664 2°55.961 21.1129 1.040811 6.9133 11.849508
2009-07-31 07:38:48 51°13.663 2°55.961 21.1154 1.019576 6.761571 11.814684
2009-07-31 07:38:52 51°13.662 2°55.961 21.1169 1.031534 6.847049 11.849508
2009-07-31 07:38:57 51°13.662 2°55.96 21.1157 1.014732 6.727095 11.849508
2009-07-31 07:39:02 51°13.662 2°55.96 21.1108 1.014732 6.727095 11.849508
2009-07-31 07:39:07 51°13.661 2°55.96 21.1162 1.015763 6.734587 11.849508
2009-07-31 07:39:12 51°13.662 2°55.96 21.1125 1.004527 6.654379 11.814684
2009-07-31 07:39:17 51°13.662 2°55.96 21.1111 1.010093 6.694234 11.849508
2009-07-31 07:39:22 51°13.663 2°55.961 21.1137 1.025143 6.801877 11.814684
2009-07-31 07:39:27 51°13.664 2°55.961 21.115 1.020298 6.76738 11.814684
2009-07-31 07:39:32 51°13.664 2°55.961 21.1171 1.020298 6.76738 11.814684
2009-07-31 07:39:37 51°13.663 2°55.961 21.1164 1.033905 6.864805 11.849508
2009-07-31 07:39:42 51°13.662 2°55.96 21.1156 1.029575 6.833967 11.849508
2009-07-31 07:39:47 51°13.662 2°55.96 21.1155 1.036997 6.887068 11.814684
2009-07-31 07:39:52 51°13.662 2°55.96 21.1141 1.026689 6.813458 11.849508
2009-07-31 07:39:57 51°13.662 2°55.96 21.1168 1.04679 6.957456 11.849508
2009-07-31 07:40:02 51°13.662 2°55.96 21.1183 1.04679 6.957456 11.849508
2009-07-31 07:40:07 51°13.662 2°55.96 21.1173 1.021535 6.776875 11.814684
2009-07-31 07:40:12 51°13.662 2°55.96 21.112 1.02102 6.773322 11.849508
2009-07-31 07:40:17 51°13.662 2°55.96 21.1147 1.011227 6.703365 11.814684
2009-07-31 07:40:22 51°13.662 2°55.96 21.1154 1.029884 6.836839 11.814684
2009-07-31 07:40:27 51°13.662 2°55.96 21.1161 1.018443 6.755037 11.849508
2009-07-31 07:40:32 51°13.662 2°55.96 21.1136 1.018443 6.755037 11.849508
2009-07-31 07:40:37 51°13.662 2°55.96 21.1125 1.016381 6.740438 11.814684
2009-07-31 07:40:42 51°13.662 2°55.96 21.1129 1.056686 7.029059 11.814684
2009-07-31 07:40:47 51°13.662 2°55.96 21.1169 1.038543 6.899202 11.849508
2009-07-31 07:40:52 51°13.662 2°55.96 21.1166 1.017618 6.749536 11.814684
2009-07-31 07:40:57 51°13.662 2°55.96 21.1163 1.034523 6.870559 11.814684
2009-07-31 07:41:02 51°13.662 2°55.96 21.1226 1.034523 6.870559 11.814684
2009-07-31 07:41:07 51°13.662 2°55.96 21.1218 1.028029 6.824228 11.814684
2009-07-31 07:41:12 51°13.662 2°55.96 21.1227 1.036378 6.883972 11.814684
2009-07-31 07:41:17 51°13.662 2°55.96 21.1219 1.035863 6.880416 11.849508
2009-07-31 07:41:22 51°13.663 2°55.96 21.1206 1.04679 6.958801 11.814684
2009-07-31 07:41:27 51°13.662 2°55.96 21.1181 1.032255 6.854728 11.814684
2009-07-31 07:41:32 51°13.662 2°55.96 21.1214 1.032255 6.854728 11.814684
2009-07-31 07:41:37 51°13.662 2°55.96 21.1252 1.040708 6.915504 11.814684
2009-07-31 07:41:42 51°13.663 2°55.96 21.1198 1.040193 6.911813 11.814684
2009-07-31 07:41:47 51°13.663 2°55.96 21.1186 1.038234 6.897922 11.849508
2009-07-31 07:41:52 51°13.663 2°55.96 21.1168 1.034111 6.868538 11.814684
2009-07-31 07:41:57 51°13.663 2°55.96 21.1179 1.036275 6.884033 11.849508
2009-07-31 07:42:02 51°13.663 2°55.96 21.1172 1.036275 6.884033 11.849508
2009-07-31 07:42:07 51°13.662 2°55.96 21.1173 1.03978 6.909261 11.814684
2009-07-31 07:42:12 51°13.662 2°55.96 21.1176 1.034729 6.873231 11.814684
2009-07-31 07:42:17 51°13.662 2°55.96 21.1174 1.032565 6.85787 11.814684
2009-07-31 07:42:22 51°13.662 2°55.96 21.1157 1.038646 6.901408 11.814684
2009-07-31 07:42:27 51°13.662 2°55.96 21.1169 1.035142 6.876448 11.814684
2009-07-31 07:42:32 51°13.662 2°55.96 21.1181 1.035142 6.876448 11.814684
2009-07-31 07:42:37 51°13.662 2°55.96 21.1186 1.021123 6.776287 11.814684
2009-07-31 07:42:42 51°13.662 2°55.96 21.1185 1.018958 6.760942 11.849508
2009-07-31 07:42:47 51°13.662 2°55.96 21.1179 1.025246 6.805903 11.814684
2009-07-31 07:42:52 51°13.662 2°55.96 21.118 1.033801 6.867254 11.814684
2009-07-31 07:42:57 51°13.662 2°55.96 21.1168 1.039677 6.909458 11.814684
2009-07-31 07:43:02 51°13.662 2°55.96 21.1166 1.039677 6.909458 11.814684
2009-07-31 07:43:07 51°13.662 2°55.96 21.1176 1.028854 6.831976 11.814684
2009-07-31 07:43:12 51°13.662 2°55.96 21.1181 1.030709 6.845386 11.814684
2009-07-31 07:43:17 51°13.662 2°55.96 21.1193 1.029369 6.835929 11.814684
2009-07-31 07:43:22 51°13.662 2°55.96 21.1192 1.031431 6.850815 11.814684
2009-07-31 07:43:27 51°13.662 2°55.96 21.1193 1.018236 6.756438 11.814684
2009-07-31 07:43:32 51°13.662 2°55.96 21.1192 1.018236 6.756438 11.814684
2009-07-31 07:43:37 51°13.662 2°55.96 21.1201 1.031018 6.847996 11.814684
2009-07-31 07:43:42 51°13.662 2°55.96 21.1219 1.043904 6.940405 11.814684
2009-07-31 07:43:47 51°13.662 2°55.96 21.1229 1.033286 6.864494 11.814684
2009-07-31 07:43:52 51°13.662 2°55.96 21.1181 1.022463 6.78705 11.814684
2009-07-31 07:43:57 51°13.662 2°55.96 21.12 1.03978 6.911132 11.814684
2009-07-31 07:44:02 51°13.662 2°55.96 21.1177 1.03978 6.911132 11.814684
2009-07-31 07:44:07 51°13.662 2°55.959 21.1229 1.023493 6.794685 11.814684
2009-07-31 07:44:12 51°13.662 2°55.959 21.1269 1.013804 6.72541 11.814684
2009-07-31 07:44:17 51°13.662 2°55.959 21.1273 1.027823 6.82579 11.814684
2009-07-31 07:44:22 51°13.662 2°55.959 21.1263 1.029781 6.839938 11.814684
2009-07-31 07:44:27 51°13.662 2°55.959 21.1261 1.040914 6.919657 11.814684
2009-07-31 07:44:32 51°13.662 2°55.959 21.1273 1.040914 6.919657 11.814684
2009-07-31 07:44:37 51°13.662 2°55.959 21.1275 1.03442 6.873277 11.814684
2009-07-31 07:44:42 51°13.662 2°55.959 21.127 1.022257 6.786232 11.814684
2009-07-31 07:44:47 51°13.662 2°55.959 21.1259 1.032668 6.860863 11.814684
2009-07-31 07:44:51 51°13.662 2°55.959 21.1257 1.019577 6.767327 11.814684
2009-07-31 07:44:57 51°13.662 2°55.959 21.1261 1.033802 6.869248 11.814684
2009-07-31 07:45:02 51°13.662 2°55.959 21.1242 1.033802 6.869248 11.814684
2009-07-31 07:45:07 51°13.662 2°55.959 21.125 1.043079 6.935838 11.814684
2009-07-31 07:45:12 51°13.662 2°55.959 21.1223 1.019267 6.765378 11.814684
2009-07-31 07:45:17 51°13.662 2°55.959 21.1229 1.027617 6.825239 11.814684
2009-07-31 07:45:22 51°13.662 2°55.959 21.1238 1.033905 6.870252 11.814684
2009-07-31 07:45:27 51°13.662 2°55.959 21.1234 1.033492 6.867432 11.814684
2009-07-31 07:45:32 51°13.662 2°55.959 21.1241 1.033492 6.867432 11.814684
2009-07-31 07:45:37 51°13.662 2°55.959 21.1257 1.023081 6.79305 11.814684
2009-07-31 07:45:42 51°13.662 2°55.959 21.1249 1.035142 6.879509 11.814684
2009-07-31 07:45:47 51°13.662 2°55.959 21.1271 1.028957 6.835226 11.814684
2009-07-31 07:45:52 51°13.662 2°55.959 21.1255 1.01803 6.757187 11.814684
2009-07-31 07:45:57 51°13.662 2°55.959 21.1261 1.033286 6.866354 11.814684
2009-07-31 07:46:02 51°13.662 2°55.959 21.1272 1.033286 6.866354 11.814684
2009-07-31 07:46:07 51°13.662 2°55.959 21.1275 1.030812 6.848774 11.814684
2009-07-31 07:46:12 51°13.662 2°55.959 21.1271 1.038646 6.905015 11.814684
2009-07-31 07:46:17 51°13.662 2°55.959 21.1262 1.04277 6.934562 11.814684
2009-07-31 07:46:22 51°13.662 2°55.959 21.1258 1.031225 6.851991 11.814684
2009-07-31 07:46:27 51°13.662 2°55.959 21.1257 1.043285 6.938524 11.814684
2009-07-31 07:46:32 51°13.662 2°55.959 21.1252 1.043285 6.938524 11.814684
2009-07-31 07:46:38 51°13.662 2°55.959 21.1256 1.035142 6.880308 11.814684
2009-07-31 07:46:42 51°13.662 2°55.959 21.1253 1.024524 6.804296 11.814684
2009-07-31 07:46:46 51°13.662 2°55.959 21.1255 1.043904 6.943227 11.814684
2009-07-31 07:46:52 51°13.662 2°55.959 21.1247 1.02772 6.82743 11.814684
2009-07-31 07:46:56 51°13.662 2°55.959 21.1241 1.028029 6.829644 11.814684
2009-07-31 07:47:02 51°13.663 2°55.959 21.1245 1.028029 6.829644 11.814684
2009-07-31 07:47:06 51°13.663 2°55.959 21.1246 1.034214 6.874062 11.814684
2009-07-31 07:47:13 51°13.663 2°55.959 21.1251 1.043801 6.942891 11.814684
2009-07-31 07:47:18 51°13.663 2°55.959 21.1256 1.026483 6.818972 11.814684
2009-07-31 07:47:22 51°13.663 2°55.959 21.1273 1.030503 6.847753 11.814684
2009-07-31 07:47:26 51°13.663 2°55.959 21.126 1.016072 6.744619 11.814684
2009-07-31 07:47:33 51°13.663 2°55.959 21.1258 1.016072 6.744619 11.814684
2009-07-31 07:47:37 51°13.663 2°55.959 21.1266 1.032771 6.864125 11.814684
2009-07-31 07:47:42 51°13.663 2°55.959 21.1267 1.034008 6.873118 11.814684
2009-07-31 07:47:48 51°13.663 2°55.959 21.1268 1.035863 6.886543 11.814684
2009-07-31 07:47:53 51°13.663 2°55.959 21.1265 1.041017 6.923477 11.814684
2009-07-31 07:47:58 51°13.663 2°55.959 21.1256 1.032668 6.863653 11.814684
2009-07-31 07:48:02 51°13.663 2°55.959 21.1255 1.032668 6.863653 11.814684
2009-07-31 07:48:08 51°13.663 2°55.959 21.1262 1.048852 6.979785 11.814684
2009-07-31 07:48:13 51°13.663 2°55.959 21.1261 1.049161 6.982139 11.814684
2009-07-31 07:48:18 51°13.663 2°55.959 21.1274 1.037822 6.900977 11.814684
2009-07-31 07:48:22 51°13.663 2°55.959 21.1288 1.032874 6.865528 11.814684
2009-07-31 07:48:28 51°13.663 2°55.959 21.1292 1.04545 6.955793 11.814684
2009-07-31 07:48:33 51°13.663 2°55.959 21.1282 1.04545 6.955793 11.814684
2009-07-31 07:48:38 51°13.663 2°55.959 21.1282 1.047718 6.972057 11.814684
2009-07-31 07:48:42 51°13.663 2°55.959 21.1287 1.04411 6.946318 11.814684
2009-07-31 07:48:48 51°13.663 2°55.959 21.1291 1.032255 6.861364 11.814684
2009-07-31 07:48:52 51°13.663 2°55.959 21.127 1.037306 6.897684 11.814684
2009-07-31 07:48:56 51°13.663 2°55.959 21.1284 1.044625 6.950283 11.814684
2009-07-31 07:49:01 51°13.663 2°55.959 21.1296 1.044625 6.950283 11.814684
2009-07-31 07:49:07 51°13.663 2°55.959 21.1278 1.048336 6.977034 11.814684
2009-07-31 07:49:11 51°13.663 2°55.959 21.1289 1.022772 6.793862 11.814684
2009-07-31 07:49:16 51°13.663 2°55.959 21.1294 1.043904 6.945378 11.814684
2009-07-31 07:49:21 51°13.663 2°55.959 21.1284 1.061016 7.068177 11.814684
2009-07-31 07:49:27 51°13.663 2°55.959 21.1271 1.028648 6.836056 11.814684
2009-07-31 07:49:32 51°13.663 2°55.959 21.1289 1.028648 6.836056 11.814684
2009-07-31 07:49:37 51°13.663 2°55.959 21.132 1.040296 6.919779 11.814684
2009-07-31 07:49:42 51°13.663 2°55.959 21.1319 1.039987 6.917562 11.814684
2009-07-31 07:49:46 51°13.663 2°55.959 21.1324 1.032668 6.865248 11.814684
2009-07-31 07:49:52 51°13.663 2°55.959 21.1301 1.032255 6.862294 11.814684
2009-07-31 07:49:56 51°13.663 2°55.959 21.1286 1.042048 6.932611 11.814684
2009-07-31 07:50:02 51°13.663 2°55.959 21.1287 1.042048 6.932611 11.814684
2009-07-31 07:50:06 51°13.663 2°55.959 21.1278 1.051532 7.000638 11.814684
2009-07-31 07:50:12 51°13.663 2°55.959 21.1295 1.04277 6.937919 11.814684
2009-07-31 07:50:18 51°13.663 2°55.959 21.1309 1.033492 6.871555 11.814684
2009-07-31 07:50:22 51°13.663 2°55.959 21.1341 1.043388 6.942489 11.814684
2009-07-31 07:50:28 51°13.663 2°55.959 21.137 1.036997 6.896803 11.814684
2009-07-31 07:50:32 51°13.663 2°55.959 21.1376 1.036997 6.896803 11.814684
2009-07-31 07:50:38 51°13.663 2°55.959 21.1329 1.028441 6.835506 11.814684
2009-07-31 07:50:42 51°13.663 2°55.959 21.1295 1.051326 6.999701 11.814684
2009-07-31 07:50:48 51°13.663 2°55.959 21.1288 1.03978 6.917022 11.814684
2009-07-31 07:50:52 51°13.663 2°55.959 21.1306 1.041327 6.928108 11.814684
2009-07-31 07:50:58 51°13.663 2°55.959 21.1335 1.036791 6.895726 11.849508
2009-07-31 07:51:02 51°13.663 2°55.959 21.1322 1.036791 6.895726 11.849508
2009-07-31 07:51:08 51°13.663 2°55.959 21.1285 1.032668 6.866179 11.814684
2009-07-31 07:51:12 51°13.663 2°55.959 21.1274 1.031637 6.858926 11.814684
2009-07-31 07:51:18 51°13.663 2°55.959 21.1283 1.042048 6.933551 11.814684
2009-07-31 07:51:22 51°13.663 2°55.959 21.129 1.028029 6.833215 11.814684
2009-07-31 07:51:28 51°13.663 2°55.959 21.1293 1.038646 6.909428 11.814684
2009-07-31 07:51:32 51°13.663 2°55.959 21.1301 1.038646 6.909428 11.814684
2009-07-31 07:51:36 51°13.663 2°55.959 21.1312 1.01937 6.771357 11.814684
2009-07-31 07:51:42 51°13.663 2°55.959 21.1325 1.031328 6.857109 11.814684
2009-07-31 07:51:48 51°13.663 2°55.959 21.1333 1.034214 6.877791 11.814684
2009-07-31 07:51:52 51°13.663 2°55.959 21.1325 1.042048 6.934088 11.814684
2009-07-31 07:51:56 51°13.663 2°55.959 21.1319 1.029266 6.842473 11.814684
2009-07-31 07:52:02 51°13.663 2°55.959 21.1335 1.029266 6.842473 11.814684
2009-07-31 07:52:08 51°13.663 2°55.959 21.1365 1.040193 6.920916 11.814684
2009-07-31 07:52:12 51°13.663 2°55.959 21.1365 1.02772 6.831662 11.814684
2009-07-31 07:52:16 51°13.663 2°55.959 21.1316 1.022669 6.795624 11.814684
2009-07-31 07:52:22 51°13.663 2°55.959 21.1316 1.034008 6.876846 11.814684
2009-07-31 07:52:26 51°13.663 2°55.959 21.1317 1.039265 6.914666 11.814684
2009-07-31 07:52:32 51°13.663 2°55.959 21.1317 1.039265 6.914666 11.814684
2009-07-31 07:52:38 51°13.663 2°55.959 21.1317 1.041533 6.930929 11.814684
2009-07-31 07:52:43 51°13.663 2°55.959 21.1318 1.023803 6.804006 11.814684
2009-07-31 07:52:46 51°13.662 2°55.959 21.132 1.014217 6.735525 11.814684
2009-07-31 07:52:52 51°13.662 2°55.959 21.1346 1.01968 6.774619 11.814684
2009-07-31 07:52:58 51°13.662 2°55.959 21.1399 1.047821 6.976444 11.814684
2009-07-31 07:53:02 51°13.662 2°55.959 21.137 1.047821 6.976444 11.814684
2009-07-31 07:53:06 51°13.662 2°55.959 21.1378 1.031946 6.862604 11.814684
2009-07-31 07:53:12 51°13.662 2°55.959 21.1411 1.029885 6.847964 11.814684
2009-07-31 07:53:18 51°13.662 2°55.959 21.1421 1.031946 6.86287 11.814684
2009-07-31 07:53:22 51°13.662 2°55.959 21.1402 1.019577 6.774275 11.814684
2009-07-31 07:53:28 51°13.662 2°55.959 21.1396 1.015557 6.745635 11.814684
2009-07-31 07:53:32 51°13.662 2°55.959 21.1372 1.015557 6.745635 11.814684
2009-07-31 07:53:37 51°13.662 2°55.959 21.1356 1.034936 6.884562 11.814684
2009-07-31 07:53:41 51°13.662 2°55.959 21.1364 1.029163 6.843192 11.814684
2009-07-31 07:53:47 51°13.662 2°55.959 21.136 1.021123 6.785739 11.814684
2009-07-31 07:53:52 51°13.662 2°55.959 21.136 1.024318 6.808752 11.814684
2009-07-31 07:53:56 51°13.662 2°55.959 21.1347 1.01803 6.763732 11.814684
2009-07-31 07:54:01 51°13.662 2°55.959 21.1348 1.01803 6.763732 11.814684
2009-07-31 07:54:07 51°13.662 2°55.959 21.1348 1.037513 6.903439 11.814684
2009-07-31 07:54:12 51°13.662 2°55.959 21.1355 1.037616 6.904178 11.814684
2009-07-31 07:54:16 51°13.663 2°55.959 21.1352 1.018134 6.764732 11.814684
2009-07-31 07:54:22 51°13.663 2°55.959 21.136 1.019577 6.775194 11.814684
2009-07-31 07:54:28 51°13.663 2°55.959 21.1345 1.041739 6.93402 11.814684
2009-07-31 07:54:32 51°13.663 2°55.959 21.1374 1.041739 6.93402 11.814684
2009-07-31 07:54:36 51°13.663 2°55.959 21.1406 1.020711 6.783444 11.814684
2009-07-31 07:54:42 51°13.663 2°55.959 21.139 1.031328 6.859634 11.814684
2009-07-31 07:54:48 51°13.663 2°55.959 21.1412 1.039677 6.9195 11.814684
2009-07-31 07:54:51 51°13.663 2°55.959 21.141 1.026174 6.822835 11.814684
2009-07-31 07:54:56 51°13.663 2°55.959 21.1366 1.034317 6.881329 11.814684
2009-07-31 07:55:02 51°13.663 2°55.959 21.1364 1.034317 6.881329 11.814684
2009-07-31 07:55:06 51°13.663 2°55.959 21.1367 1.013598 6.732926 11.814684
2009-07-31 07:55:11 51°13.663 2°55.959 21.1356 1.023597 6.804639 11.814684
2009-07-31 07:55:17 51°13.663 2°55.959 21.134 1.037203 6.902158 11.814684
2009-07-31 07:55:22 51°13.663 2°55.959 21.135 1.017721 6.762698 11.814684
2009-07-31 07:55:26 51°13.663 2°55.958 21.1364 1.028854 6.842568 11.814684
2009-07-31 07:55:32 51°13.663 2°55.958 21.1373 1.028854 6.842568 11.814684
2009-07-31 07:55:38 51°13.663 2°55.958 21.1378 1.027205 6.83075 11.814684
2009-07-31 07:55:42 51°13.663 2°55.958 21.1384 1.024628 6.812419 11.814684
2009-07-31 07:55:46 51°13.663 2°55.958 21.1392 1.023288 6.802952 11.814684
2009-07-31 07:55:52 51°13.663 2°55.958 21.1387 1.033802 6.8783 11.814684
2009-07-31 07:55:57 51°13.663 2°55.958 21.1388 1.017927 6.764699 11.814684
2009-07-31 07:56:02 51°13.663 2°55.958 21.1385 1.017927 6.764699 11.814684
2009-07-31 07:56:06 51°13.663 2°55.958 21.1389 1.024318 6.810468 11.849508
2009-07-31 07:56:12 51°13.662 2°55.958 21.1388 1.026483 6.826109 11.814684
2009-07-31 07:56:18 51°13.662 2°55.958 21.1401 1.021226 6.788581 11.814684
2009-07-31 07:56:22 51°13.662 2°55.958 21.1407 1.0237 6.806301 11.814684
2009-07-31 07:56:28 51°13.662 2°55.958 21.1414 1.025555 6.819726 11.814684
2009-07-31 07:56:32 51°13.662 2°55.958 21.1415 1.025555 6.819726 11.814684
2009-07-31 07:56:37 51°13.662 2°55.958 21.1413 1.026071 6.823419 11.814684
2009-07-31 07:56:41 51°13.662 2°55.958 21.1409 1.012361 6.725379 11.814684
2009-07-31 07:56:47 51°13.662 2°55.958 21.1392 1.018237 6.767568 11.814684
2009-07-31 07:56:53 51°13.662 2°55.959 21.139 1.027926 6.83698 11.814684
2009-07-31 07:56:57 51°13.662 2°55.959 21.1392 1.03576 6.893279 11.814684
2009-07-31 07:57:01 51°13.662 2°55.959 21.1387 1.03576 6.893279 11.814684
2009-07-31 07:57:07 51°13.663 2°55.959 21.138 1.022772 6.800183 11.814684
2009-07-31 07:57:12 51°13.663 2°55.959 21.1378 1.031843 6.865324 11.814684
2009-07-31 07:57:16 51°13.663 2°55.959 21.1378 1.019474 6.77682 11.849508
2009-07-31 07:57:22 51°13.663 2°55.959 21.1374 1.025761 6.821997 11.814684
2009-07-31 07:57:27 51°13.662 2°55.959 21.1374 1.019267 6.775475 11.814684
2009-07-31 07:57:32 51°13.662 2°55.959 21.1365 1.019267 6.775475 11.814684
2009-07-31 07:57:36 51°13.662 2°55.959 21.1372 1.030194 6.853766 11.814684
2009-07-31 07:57:42 51°13.662 2°55.959 21.141 1.002466 6.65537 11.814684
2009-07-31 07:57:47 51°13.662 2°55.959 21.1432 1.026792 6.829648 11.814684
2009-07-31 07:57:51 51°13.662 2°55.959 21.1471 1.022566 6.799365 11.814684
2009-07-31 07:57:57 51°13.663 2°55.959 21.147 1.024009 6.809837 11.814684
2009-07-31 07:58:02 51°13.663 2°55.959 21.1466 1.024009 6.809837 11.814684
2009-07-31 07:58:06 51°13.663 2°55.959 21.1466 1.030709 6.857992 11.814684
2009-07-31 07:58:12 51°13.663 2°55.959 21.1457 1.029369 6.848385 11.814684
2009-07-31 07:58:17 51°13.663 2°55.959 21.1456 1.024215 6.811578 11.814684
2009-07-31 07:58:22 51°13.663 2°55.959 21.1438 1.010918 6.716354 11.814684
2009-07-31 07:58:26 51°13.663 2°55.959 21.1427 1.020092 6.78217 11.814684
2009-07-31 07:58:32 51°13.663 2°55.959 21.1413 1.020092 6.78217 11.814684
2009-07-31 07:58:37 51°13.663 2°55.959 21.1421 1.021638 6.793246 11.814684
2009-07-31 07:58:42 51°13.663 2°55.959 21.1422 1.030091 6.853957 11.814684
2009-07-31 07:58:46 51°13.663 2°55.959 21.1412 1.017309 6.762499 11.814684
2009-07-31 07:58:52 51°13.663 2°55.959 21.1421 1.018237 6.769143 11.814684
2009-07-31 07:58:58 51°13.663 2°55.959 21.1416 1.029163 6.847571 11.814684
2009-07-31 07:59:02 51°13.663 2°55.959 21.1411 1.029163 6.847571 11.814684
2009-07-31 07:59:07 51°13.663 2°55.959 21.14 1.024937 6.817277 11.814684
2009-07-31 07:59:12 51°13.663 2°55.959 21.1406 1.018443 6.770882 11.814684
2009-07-31 07:59:17 51°13.663 2°55.959 21.1406 1.024731 6.815932 11.814684
2009-07-31 07:59:21 51°13.663 2°55.959 21.1403 1.019989 6.782089 11.814684
2009-07-31 07:59:27 51°13.663 2°55.959 21.1384 1.007104 6.689842 11.814684
2009-07-31 07:59:32 51°13.663 2°55.959 21.137 1.007104 6.689842 11.814684
2009-07-31 07:59:36 51°13.663 2°55.959 21.1398 1.020298 6.784436 11.814684
2009-07-31 07:59:41 51°13.663 2°55.959 21.1432 1.034008 6.882847 11.814684
2009-07-31 07:59:47 51°13.663 2°55.959 21.1412 1.014629 6.743962 11.814684
2009-07-31 07:59:52 51°13.663 2°55.959 21.1397 1.017103 6.761809 11.814684
2009-07-31 07:59:56 51°13.663 2°55.959 21.1425 1.043079 6.948077 11.849508
2009-07-31 08:00:02 51°13.663 2°55.959 21.1497 1.043079 6.948077 11.849508
2009-07-31 08:00:07 51°13.663 2°55.959 21.1518 1.024731 6.816593 11.814684
2009-07-31 08:00:11 51°13.663 2°55.959 21.1531 0.997621 6.622661 11.814684
2009-07-31 08:00:17 51°13.663 2°55.959 21.1498 1.012671 6.730331 11.849508
2009-07-31 08:00:22 51°13.662 2°55.959 21.1488 1.034008 6.883381 11.814684
2009-07-31 08:00:27 51°13.662 2°55.959 21.1481 1.019783 6.781401 11.814684
2009-07-31 08:00:31 51°13.662 2°55.959 21.1471 1.019783 6.781401 11.814684
2009-07-31 08:00:37 51°13.662 2°55.958 21.1476 1.018649 6.77341 11.849508
2009-07-31 08:00:42 51°13.662 2°55.959 21.1474 1.025349 6.821423 11.849508
2009-07-31 08:00:46 51°13.662 2°55.958 21.1481 1.031225 6.863684 11.814684
2009-07-31 08:00:52 51°13.662 2°55.958 21.1483 1.019371 6.778842 11.814684
2009-07-31 08:00:57 51°13.662 2°55.958 21.1474 1.023391 6.807781 11.814684
2009-07-31 08:01:02 51°13.662 2°55.958 21.1469 1.023391 6.807781 11.814684
2009-07-31 08:01:06 51°13.662 2°55.958 21.1458 1.038647 6.917201 11.814684
2009-07-31 08:01:12 51°13.662 2°55.958 21.1481 1.012155 6.727294 11.814684
2009-07-31 08:01:17 51°13.662 2°55.958 21.1476 1.03308 6.877393 11.814684
2009-07-31 08:01:21 51°13.662 2°55.958 21.1437 1.024009 6.812478 11.814684
2009-07-31 08:01:27 51°13.662 2°55.958 21.1463 1.022154 6.79918 11.814684
2009-07-31 08:01:32 51°13.663 2°55.958 21.1474 1.022154 6.79918 11.814684
2009-07-31 08:01:37 51°13.663 2°55.958 21.1445 1.029988 6.855478 11.814684
2009-07-31 08:01:41 51°13.663 2°55.959 21.1441 1.023081 6.806093 11.814684
2009-07-31 08:01:47 51°13.663 2°55.959 21.1448 1.032462 6.873356 11.849508
2009-07-31 08:01:52 51°13.663 2°55.959 21.1471 1.012877 6.733113 11.849508
2009-07-31 08:01:57 51°13.663 2°55.959 21.1479 1.021638 6.795882 11.814684
2009-07-31 08:02:01 51°13.663 2°55.959 21.1484 1.021638 6.795882 11.814684
2009-07-31 08:02:07 51°13.663 2°55.959 21.1469 1.015351 6.750962 11.814684
2009-07-31 08:02:12 51°13.663 2°55.959 21.1486 1.022772 6.80414 11.814684
2009-07-31 08:02:16 51°13.663 2°55.959 21.1482 1.010918 6.71935 11.814684
2009-07-31 08:02:21 51°13.663 2°55.959 21.1474 1.027926 6.841357 11.849508
2009-07-31 08:02:27 51°13.663 2°55.959 21.1474 1.023597 6.810315 11.849508
2009-07-31 08:02:32 51°13.663 2°55.959 21.1479 1.023597 6.810315 11.849508
2009-07-31 08:02:37 51°13.663 2°55.959 21.1455 1.021329 6.794193 11.814684
2009-07-31 08:02:41 51°13.663 2°55.959 21.149 1.042873 6.948754 11.814684
2009-07-31 08:02:47 51°13.662 2°55.959 21.1488 1.012258 6.729207 11.849508
2009-07-31 08:02:51 51°13.662 2°55.959 21.148 1.032565 6.874896 11.849508
2009-07-31 08:02:57 51°13.662 2°55.959 21.1487 1.034214 6.886864 11.849508
2009-07-31 08:03:02 51°13.662 2°55.959 21.1496 1.034214 6.886864 11.849508
2009-07-31 08:03:07 51°13.662 2°55.959 21.1495 1.01834 6.773033 11.814684
2009-07-31 08:03:12 51°13.662 2°55.959 21.1479 1.013804 6.740672 11.814684
2009-07-31 08:03:17 51°13.662 2°55.959 21.148 1.016794 6.762086 11.814684
2009-07-31 08:03:22 51°13.662 2°55.959 21.1474 1.008238 6.700944 11.849508
2009-07-31 08:03:26 51°13.662 2°55.959 21.144 1.027102 6.836106 11.849508
2009-07-31 08:03:32 51°13.662 2°55.959 21.1454 1.027102 6.836106 11.849508
2009-07-31 08:03:37 51°13.662 2°55.959 21.145 1.031328 6.866554 11.849508
2009-07-31 08:03:42 51°13.662 2°55.959 21.1454 1.022051 6.800024 11.814684
2009-07-31 08:03:47 51°13.662 2°55.958 21.1466 1.024937 6.820848 11.849508
2009-07-31 08:03:52 51°13.663 2°55.959 21.1462 1.027823 6.841547 11.849508
2009-07-31 08:03:57 51°13.663 2°55.959 21.1452 1.016175 6.75818 11.849508
2009-07-31 08:04:02 51°13.663 2°55.959 21.1455 1.016175 6.75818 11.849508
2009-07-31 08:04:07 51°13.663 2°55.959 21.1448 1.024834 6.820242 11.814684
2009-07-31 08:04:12 51°13.663 2°55.959 21.1458 1.0371 6.908382 11.849508
2009-07-31 08:04:17 51°13.663 2°55.959 21.1471 1.028029 6.843424 11.849508
2009-07-31 08:04:22 51°13.663 2°55.958 21.148 1.010506 6.717832 11.849508
2009-07-31 08:04:27 51°13.663 2°55.958 21.1477 1.0103 6.716486 11.849508
2009-07-31 08:04:32 51°13.663 2°55.958 21.1489 1.0103 6.716486 11.849508
2009-07-31 08:04:37 51°13.663 2°55.958 21.1485 1.023185 6.808813 11.814684
2009-07-31 08:04:41 51°13.663 2°55.958 21.1488 1.019783 6.784559 11.849508
2009-07-31 08:04:47 51°13.663 2°55.958 21.147 1.005868 6.684881 11.814684
2009-07-31 08:04:52 51°13.663 2°55.958 21.1469 1.010918 6.721176 11.814684
2009-07-31 08:04:56 51°13.663 2°55.958 21.1476 1.021123 6.794297 11.814684
2009-07-31 08:05:01 51°13.663 2°55.958 21.1459 1.021123 6.794297 11.814684
2009-07-31 08:05:07 51°13.663 2°55.958 21.1468 1.016588 6.76179 11.849508
2009-07-31 08:05:12 51°13.663 2°55.958 21.1479 1.013289 6.738288 11.849508
2009-07-31 08:05:16 51°13.663 2°55.958 21.1504 1.039265 6.92473 11.814684
2009-07-31 08:05:22 51°13.662 2°55.958 21.1545 1.001435 6.653546 11.849508
2009-07-31 08:05:27 51°13.662 2°55.958 21.1523 1.019371 6.781999 11.849508
2009-07-31 08:05:31 51°13.662 2°55.958 21.1485 1.019371 6.781999 11.849508
2009-07-31 08:05:37 51°13.662 2°55.958 21.1479 1.016588 6.762184 11.849508
2009-07-31 08:05:42 51°13.662 2°55.958 21.1484 1.018649 6.77709 11.849508
2009-07-31 08:05:47 51°13.662 2°55.958 21.1512 1.022772 6.806649 11.849508
2009-07-31 08:05:52 51°13.662 2°55.958 21.1512 1.021123 6.794956 11.849508
2009-07-31 08:05:57 51°13.662 2°55.958 21.1505 1.021226 6.795695 11.849508
2009-07-31 08:06:02 51°13.662 2°55.958 21.1476 1.021226 6.795695 11.849508
2009-07-31 08:06:06 51°13.662 2°55.958 21.1484 1.013186 6.738203 11.849508
2009-07-31 08:06:12 51°13.663 2°55.958 21.1458 1.002466 6.66144 11.849508
2009-07-31 08:06:17 51°13.663 2°55.958 21.1523 1.026277 6.832181 11.849508
2009-07-31 08:06:22 51°13.663 2°55.958 21.1529 0.999889 6.643127 11.849508
2009-07-31 08:06:26 51°13.663 2°55.958 21.1503 1.008238 6.703025 11.849508
2009-07-31 08:06:32 51°13.663 2°55.958 21.15 1.008238 6.703025 11.849508
2009-07-31 08:06:37 51°13.663 2°55.958 21.1494 1.018031 6.773183 11.849508
2009-07-31 08:06:41 51°13.663 2°55.958 21.1508 1.010197 6.717181 11.849508
2009-07-31 08:06:47 51°13.662 2°55.958 21.1518 1.028854 6.850934 11.849508
2009-07-31 08:06:52 51°13.662 2°55.958 21.1502 1.017515 6.76962 11.849508
2009-07-31 08:06:57 51°13.662 2°55.958 21.1517 1.023288 6.81127 11.849508
2009-07-31 08:07:01 51°13.662 2°55.958 21.1496 1.023288 6.81127 11.849508
2009-07-31 08:07:07 51°13.662 2°55.959 21.1502 1.000714 6.649544 11.849508
2009-07-31 08:07:12 51°13.662 2°55.958 21.1503 1.012464 6.733688 11.849508
2009-07-31 08:07:18 51°13.663 2°55.959 21.1495 1.00762 6.698986 11.849508
2009-07-31 08:07:21 51°13.663 2°55.959 21.1497 1.017309 6.768537 11.849508
2009-07-31 08:07:28 51°13.662 2°55.959 21.1497 1.011537 6.727303 11.849508
2009-07-31 08:07:32 51°13.662 2°55.959 21.1508 1.011537 6.727303 11.849508
2009-07-31 08:07:36 51°13.662 2°55.959 21.1516 1.019783 6.786403 11.849508
2009-07-31 08:07:42 51°13.662 2°55.959 21.1535 1.015248 6.754023 11.849508
2009-07-31 08:07:48 51°13.662 2°55.959 21.1534 1.025246 6.825715 11.849508
2009-07-31 08:07:52 51°13.662 2°55.959 21.1557 1.008238 6.703935 11.849508
2009-07-31 08:07:56 51°13.662 2°55.958 21.158 1.010815 6.722394 11.849508
2009-07-31 08:08:02 51°13.662 2°55.958 21.1558 1.010815 6.722394 11.849508
2009-07-31 08:08:08 51°13.662 2°55.958 21.1525 1.02504 6.824501 11.849508
2009-07-31 08:08:12 51°13.662 2°55.958 21.1547 1.020917 6.794929 11.849508
2009-07-31 08:08:18 51°13.662 2°55.958 21.1553 1.018443 6.777322 11.849508
2009-07-31 08:08:22 51°13.662 2°55.958 21.1556 1.021123 6.796539 11.849508
2009-07-31 08:08:28 51°13.662 2°55.958 21.1552 1.0237 6.815153 11.849508
2009-07-31 08:08:32 51°13.662 2°55.958 21.1541 1.0237 6.815153 11.849508
2009-07-31 08:08:38 51°13.662 2°55.958 21.1533 1.014011 6.745683 11.849508
2009-07-31 08:08:42 51°13.662 2°55.958 21.1525 1.022875 6.809371 11.849508
2009-07-31 08:08:46 51°13.662 2°55.958 21.1516 1.007723 6.700764 11.849508
2009-07-31 08:08:52 51°13.662 2°55.958 21.1508 1.006383 6.691297 11.849508
2009-07-31 08:08:58 51°13.662 2°55.958 21.1511 1.013908 6.745206 11.849508
2009-07-31 08:09:02 51°13.662 2°55.958 21.1537 1.013908 6.745206 11.849508
2009-07-31 08:09:06 51°13.662 2°55.958 21.1544 1.014217 6.747553 11.849508
2009-07-31 08:09:12 51°13.662 2°55.959 21.155 1.017825 6.773546 11.849508
2009-07-31 08:09:18 51°13.662 2°55.959 21.1544 1.024525 6.821598 11.849508
2009-07-31 08:09:22 51°13.662 2°55.959 21.1546 1.025865 6.831213 11.849508
2009-07-31 08:09:28 51°13.662 2°55.959 21.1549 1.019268 6.784025 11.849508
2009-07-31 08:09:32 51°13.662 2°55.959 21.1549 1.019268 6.784025 11.849508
2009-07-31 08:09:38 51°13.662 2°55.959 21.1545 1.017309 6.770114 11.849508
2009-07-31 08:09:42 51°13.662 2°55.959 21.1532 1.00628 6.691078 11.849508
2009-07-31 08:09:48 51°13.662 2°55.959 21.1519 1.033905 6.88919 11.849508
2009-07-31 08:09:53 51°13.662 2°55.959 21.1546 1.008135 6.704499 11.849508
2009-07-31 08:09:57 51°13.662 2°55.959 21.1542 1.024731 6.823607 11.849508
2009-07-31 08:10:02 51°13.662 2°55.959 21.1521 1.024731 6.823607 11.849508
2009-07-31 08:10:08 51°13.662 2°55.959 21.1566 1.006383 6.692077 11.849508
2009-07-31 08:10:12 51°13.662 2°55.959 21.1566 1.022669 6.80895 11.849508
2009-07-31 08:10:18 51°13.662 2°55.959 21.1541 1.019268 6.784552 11.849508
2009-07-31 08:10:22 51°13.662 2°55.959 21.1537 1.015454 6.757337 11.849508
2009-07-31 08:10:28 51°13.662 2°55.959 21.1538 1.019268 6.784684 11.849508
2009-07-31 08:10:32 51°13.662 2°55.959 21.1534 1.019268 6.784684 11.849508
2009-07-31 08:10:38 51°13.662 2°55.959 21.1523 1.022772 6.809821 11.849508
2009-07-31 08:10:42 51°13.662 2°55.959 21.152 1.014835 6.753035 11.849508
2009-07-31 08:10:48 51°13.662 2°55.959 21.1522 1.019989 6.790122 11.849508
2009-07-31 08:10:52 51°13.663 2°55.959 21.1523 1.019474 6.786426 11.849508
2009-07-31 08:10:58 51°13.663 2°55.96 21.1528 1.027926 6.847202 11.849508
2009-07-31 08:11:03 51°13.663 2°55.96 21.1525 1.027926 6.847202 11.849508
2009-07-31 08:11:07 51°13.663 2°55.96 21.1521 1.029885 6.861261 11.884332
2009-07-31 08:11:12 51°13.663 2°55.96 21.1519 1.018443 6.779165 11.849508
2009-07-31 08:11:18 51°13.663 2°55.96 21.1516 1.025143 6.827361 11.884332
2009-07-31 08:11:22 51°13.663 2°55.96 21.151 1.034214 6.892615 11.884332
2009-07-31 08:11:27 51°13.663 2°55.96 21.1525 1.029163 6.856348 11.884332
2009-07-31 08:11:32 51°13.663 2°55.96 21.154 1.029163 6.856348 11.884332
2009-07-31 08:11:38 51°13.663 2°55.96 21.1557 1.022669 6.809875 11.849508
2009-07-31 08:11:42 51°13.663 2°55.96 21.1555 1.023082 6.812834 11.884332
2009-07-31 08:11:48 51°13.663 2°55.96 21.1545 1.00762 6.702108 11.849508
2009-07-31 08:11:52 51°13.663 2°55.96 21.1554 1.020814 6.796697 11.884332
2009-07-31 08:11:58 51°13.663 2°55.96 21.1544 1.020711 6.795957 11.849508
2009-07-31 08:12:02 51°13.663 2°55.96 21.1546 1.020711 6.795957 11.849508
2009-07-31 08:12:08 51°13.663 2°55.96 21.1534 1.015969 6.762083 11.849508
2009-07-31 08:12:12 51°13.663 2°55.96 21.1529 1.028133 6.84948 11.884332
2009-07-31 08:12:18 51°13.664 2°55.96 21.1521 1.026896 6.840601 11.884332
2009-07-31 08:12:22 51°13.664 2°55.96 21.1523 1.026071 6.834815 11.849508
2009-07-31 08:12:28 51°13.664 2°55.96 21.1526 1.017412 6.772694 11.849508
2009-07-31 08:12:32 51°13.664 2°55.96 21.1523 1.017412 6.772694 11.849508
2009-07-31 08:12:36 51°13.664 2°55.96 21.1523 1.011846 6.732916 11.884332
2009-07-31 08:12:42 51°13.664 2°55.96 21.1505 1.011434 6.730092 11.884332
2009-07-31 08:12:48 51°13.664 2°55.96 21.1503 1.035348 6.901697 11.884332
2009-07-31 08:12:52 51°13.664 2°55.96 21.1518 1.026999 6.84174 11.884332
2009-07-31 08:12:58 51°13.664 2°55.96 21.1526 1.027514 6.845572 11.884332
2009-07-31 08:13:02 51°13.664 2°55.96 21.1548 1.027514 6.845572 11.884332
2009-07-31 08:13:08 51°13.664 2°55.96 21.1551 1.01834 6.779742 11.884332
2009-07-31 08:13:12 51°13.664 2°55.96 21.1545 1.024215 6.822029 11.884332
2009-07-31 08:13:18 51°13.664 2°55.96 21.155 1.026792 6.840526 11.849508
2009-07-31 08:13:22 51°13.664 2°55.96 21.154 1.01968 6.789618 11.884332
2009-07-31 08:13:26 51°13.664 2°55.96 21.1531 1.024112 6.821555 11.884332
2009-07-31 08:13:33 51°13.664 2°55.96 21.1527 1.024112 6.821555 11.884332
2009-07-31 08:13:38 51°13.664 2°55.96 21.1531 1.018855 6.783703 11.884332
2009-07-31 08:13:42 51°13.664 2°55.96 21.1528 1.002157 6.664141 11.884332
2009-07-31 08:13:46 51°13.664 2°55.96 21.1543 1.009166 6.714491 11.884332
2009-07-31 08:13:52 51°13.664 2°55.96 21.1566 1.016278 6.765483 11.884332
2009-07-31 08:13:58 51°13.664 2°55.96 21.1535 1.02906 6.857339 11.884332
2009-07-31 08:14:02 51°13.664 2°55.96 21.149 1.02906 6.857339 11.884332
2009-07-31 08:14:08 51°13.664 2°55.96 21.1476 1.031947 6.878066 11.884332
2009-07-31 08:14:13 51°13.664 2°55.96 21.1479 1.019783 6.790886 11.884332
2009-07-31 08:14:18 51°13.664 2°55.96 21.1489 1.020917 6.799021 11.884332
2009-07-31 08:14:22 51°13.664 2°55.96 21.1483 1.015042 6.757006 11.884332
2009-07-31 08:14:28 51°13.664 2°55.96 21.1487 1.019268 6.78732 11.884332
2009-07-31 08:14:32 51°13.664 2°55.96 21.1486 1.019268 6.78732 11.884332
2009-07-31 08:14:38 51°13.664 2°55.959 21.1509 1.020711 6.797674 11.884332
2009-07-31 08:14:42 51°13.664 2°55.959 21.151 1.03741 6.917718 11.884332
2009-07-31 08:14:48 51°13.664 2°55.959 21.1528 1.02937 6.860093 11.884332
2009-07-31 08:14:52 51°13.664 2°55.959 21.1525 1.024319 6.82383 11.884332
2009-07-31 08:14:58 51°13.664 2°55.959 21.152 1.024319 6.823962 11.884332
2009-07-31 08:15:02 51°13.664 2°55.959 21.1549 1.024319 6.823962 11.884332
2009-07-31 08:15:08 51°13.664 2°55.959 21.1562 1.013289 6.744833 11.884332
2009-07-31 08:15:13 51°13.664 2°55.959 21.1553 1.025762 6.834321 11.884332
2009-07-31 08:15:16 51°13.664 2°55.959 21.156 1.016175 6.765663 11.884332
2009-07-31 08:15:22 51°13.664 2°55.959 21.1541 1.025556 6.833107 11.884332
2009-07-31 08:15:28 51°13.664 2°55.959 21.1539 1.020195 6.794636 11.884332
2009-07-31 08:15:33 51°13.664 2°55.959 21.1541 1.020195 6.794636 11.884332
2009-07-31 08:15:37 51°13.664 2°55.959 21.1537 1.012568 6.739921 11.884332
2009-07-31 08:15:42 51°13.664 2°55.959 21.1541 1.017 6.771842 11.884332
2009-07-31 08:15:48 51°13.664 2°55.959 21.1531 1.009063 6.714926 11.884332
2009-07-31 08:15:52 51°13.664 2°55.959 21.1528 1.020195 6.7949 11.884332
2009-07-31 08:15:58 51°13.664 2°55.959 21.1525 1.028133 6.851876 11.884332
2009-07-31 08:16:02 51°13.664 2°55.959 21.1518 1.028133 6.851876 11.884332
2009-07-31 08:16:08 51°13.664 2°55.959 21.1517 1.014835 6.756446 11.884332
2009-07-31 08:16:12 51°13.664 2°55.959 21.1521 1.016485 6.768408 11.884332
2009-07-31 08:16:18 51°13.664 2°55.959 21.1531 1.01834 6.78185 11.884332
2009-07-31 08:16:22 51°13.664 2°55.959 21.1523 1.031019 6.872872 11.884332
2009-07-31 08:16:26 51°13.664 2°55.959 21.1523 1.024937 6.829331 11.884332
2009-07-31 08:16:32 51°13.663 2°55.959 21.1531 1.024937 6.829331 11.884332
2009-07-31 08:16:38 51°13.663 2°55.959 21.1549 1.019577 6.790858 11.884332
2009-07-31 08:16:42 51°13.663 2°55.959 21.1544 1.034524 6.898186 11.884332
2009-07-31 08:16:46 51°13.663 2°55.959 21.1571 1.010815 6.728142 11.884332
2009-07-31 08:16:52 51°13.663 2°55.959 21.1554 1.010197 6.723707 11.884332
2009-07-31 08:16:58 51°13.663 2°55.959 21.1542 1.024319 6.825023 11.884332
2009-07-31 08:17:02 51°13.663 2°55.959 21.1537 1.024319 6.825023 11.884332
2009-07-31 08:17:08 51°13.663 2°55.959 21.1541 1.01432 6.753406 11.884332
2009-07-31 08:17:12 51°13.663 2°55.959 21.1548 1.012362 6.739491 11.884332
2009-07-31 08:17:18 51°13.663 2°55.96 21.1537 1.016382 6.768326 11.884332
2009-07-31 08:17:22 51°13.663 2°55.96 21.1534 1.013289 6.746275 11.884332
2009-07-31 08:17:28 51°13.663 2°55.96 21.1527 1.028957 6.858731 11.884332
2009-07-31 08:17:32 51°13.663 2°55.96 21.1533 1.028957 6.858731 11.884332
2009-07-31 08:17:38 51°13.663 2°55.96 21.1537 1.006074 6.694672 11.884332
2009-07-31 08:17:42 51°13.663 2°55.96 21.1541 1.040193 6.939609 11.884332
2009-07-31 08:17:48 51°13.663 2°55.96 21.1575 1.036688 6.914548 11.919156
2009-07-31 08:17:52 51°13.663 2°55.96 21.1597 1.012568 6.741362 11.919156
2009-07-31 08:17:58 51°13.663 2°55.96 21.1577 1.00226 6.66747 11.884332
2009-07-31 08:18:02 51°13.663 2°55.96 21.1585 1.00226 6.66747 11.884332
2009-07-31 08:18:08 51°13.663 2°55.96 21.1595 1.028648 6.85691 11.919156
2009-07-31 08:18:12 51°13.663 2°55.96 21.1588 1.021535 6.805839 11.919156
2009-07-31 08:18:18 51°13.663 2°55.96 21.1607 1.010918 6.729796 11.884332
2009-07-31 08:18:22 51°13.663 2°55.96 21.1599 1.019577 6.791914 11.884332
2009-07-31 08:18:28 51°13.663 2°55.96 21.1596 1.031637 6.878652 11.919156
2009-07-31 08:18:32 51°13.663 2°55.96 21.1569 1.031637 6.878652 11.919156
2009-07-31 08:18:36 51°13.663 2°55.96 21.1555 1.026586 6.842369 11.919156
2009-07-31 08:18:42 51°13.664 2°55.96 21.1549 1.007929 6.708623 11.919156
2009-07-31 08:18:48 51°13.664 2°55.96 21.1557 1.022257 6.811415 11.919156
2009-07-31 08:18:52 51°13.664 2°55.96 21.1568 1.016175 6.767767 11.919156
2009-07-31 08:18:58 51°13.664 2°55.96 21.1565 1.006383 6.697669 11.919156
2009-07-31 08:19:02 51°13.664 2°55.96 21.1559 1.006383 6.697669 11.919156
2009-07-31 08:19:06 51°13.664 2°55.96 21.1549 1.029163 6.861145 11.919156
2009-07-31 08:19:12 51°13.664 2°55.96 21.1547 1.032668 6.88646 11.919156
2009-07-31 08:19:17 51°13.664 2°55.96 21.1552 1.017412 6.776906 11.919156
2009-07-31 08:19:22 51°13.664 2°55.96 21.1576 1.023391 6.819954 11.884332
2009-07-31 08:19:26 51°13.664 2°55.96 21.1559 1.018855 6.787395 11.884332
2009-07-31 08:19:32 51°13.665 2°55.96 21.1561 1.018855 6.787395 11.884332
2009-07-31 08:19:37 51°13.665 2°55.96 21.1564 1.025865 6.837852 11.919156
2009-07-31 08:19:42 51°13.665 2°55.96 21.1555 1.010197 6.725406 11.919156
2009-07-31 08:19:47 51°13.665 2°55.96 21.155 1.020402 6.798625 11.919156
2009-07-31 08:19:52 51°13.665 2°55.96 21.1546 1.016897 6.773603 11.919156
2009-07-31 08:19:57 51°13.665 2°55.96 21.157 1.024216 6.826273 11.919156
2009-07-31 08:20:02 51°13.665 2°55.96 21.1563 1.024216 6.826273 11.919156
2009-07-31 08:20:07 51°13.665 2°55.959 21.1567 1.019268 6.79075 11.919156
2009-07-31 08:20:12 51°13.665 2°55.959 21.1569 1.018443 6.784963 11.919156
2009-07-31 08:20:17 51°13.665 2°55.959 21.158 1.026277 6.841212 11.919156
2009-07-31 08:20:22 51°13.665 2°55.959 21.1582 1.028751 6.858983 11.919156
2009-07-31 08:20:28 51°13.665 2°55.959 21.1587 1.02102 6.803594 11.919156
2009-07-31 08:20:32 51°13.665 2°55.959 21.1587 1.02102 6.803594 11.919156
2009-07-31 08:20:37 51°13.665 2°55.959 21.1589 1.020092 6.797066 11.919156
2009-07-31 08:20:41 51°13.665 2°55.959 21.1605 1.009785 6.723103 11.919156
2009-07-31 08:20:48 51°13.665 2°55.959 21.1597 1.011331 6.734193 11.919156
2009-07-31 08:20:52 51°13.665 2°55.959 21.1581 1.022051 6.811259 11.919156
2009-07-31 08:20:58 51°13.665 2°55.959 21.1587 1.023494 6.821622 11.919156
2009-07-31 08:21:02 51°13.665 2°55.959 21.1586 1.023494 6.821622 11.919156
2009-07-31 08:21:08 51°13.665 2°55.959 21.1591 1.023494 6.821755 11.919156
2009-07-31 08:21:12 51°13.665 2°55.959 21.1574 1.024525 6.829158 11.919156
2009-07-31 08:21:17 51°13.665 2°55.959 21.1599 1.03071 6.87359 11.919156
2009-07-31 08:21:22 51°13.665 2°55.959 21.1599 1.004837 6.688016 11.919156
2009-07-31 08:21:27 51°13.665 2°55.959 21.1591 1.007105 6.704406 11.919156
2009-07-31 08:21:32 51°13.665 2°55.959 21.1591 1.007105 6.704406 11.919156
2009-07-31 08:21:37 51°13.665 2°55.959 21.161 1.039472 6.936848 11.919156
2009-07-31 08:21:42 51°13.665 2°55.959 21.1644 1.005971 6.696275 11.919156
2009-07-31 08:21:48 51°13.665 2°55.959 21.1631 1.020814 6.802907 11.919156
2009-07-31 08:21:52 51°13.665 2°55.959 21.1634 1.019577 6.794027 11.919156
2009-07-31 08:21:57 51°13.665 2°55.959 21.1578 1.014217 6.755555 11.95398
2009-07-31 08:22:02 51°13.665 2°55.959 21.158 1.014217 6.755555 11.95398
2009-07-31 08:22:06 51°13.665 2°55.959 21.1601 1.030503 6.872643 11.919156
2009-07-31 08:22:12 51°13.665 2°55.959 21.1594 1.031225 6.877828 11.919156
2009-07-31 08:22:17 51°13.665 2°55.959 21.1589 1.032771 6.889076 11.95398
2009-07-31 08:22:22 51°13.665 2°55.959 21.1588 1.023082 6.819457 11.919156
2009-07-31 08:22:27 51°13.665 2°55.959 21.159 1.009991 6.725627 11.919156
2009-07-31 08:22:32 51°13.665 2°55.959 21.1589 1.009991 6.725627 11.919156
2009-07-31 08:22:37 51°13.665 2°55.959 21.1578 1.014011 6.75447 11.919156
2009-07-31 08:22:41 51°13.665 2°55.959 21.1578 1.018237 6.784803 11.95398
2009-07-31 08:22:48 51°13.665 2°55.959 21.1579 1.014732 6.759779 11.95398
2009-07-31 08:22:52 51°13.665 2°55.959 21.1582 1.018237 6.784935 11.95398
2009-07-31 08:22:57 51°13.665 2°55.959 21.1566 1.029473 6.865636 11.919156
2009-07-31 08:23:01 51°13.665 2°55.959 21.1566 1.029473 6.865636 11.919156
2009-07-31 08:23:07 51°13.665 2°55.959 21.1571 1.018856 6.789507 11.919156
2009-07-31 08:23:12 51°13.665 2°55.959 21.1566 1.026277 6.842942 11.919156
2009-07-31 08:23:17 51°13.665 2°55.959 21.1559 1.030607 6.874052 11.95398
2009-07-31 08:23:22 51°13.665 2°55.959 21.156 1.01298 6.747467 11.919156
2009-07-31 08:23:28 51°13.664 2°55.959 21.1557 1.025968 6.84072 11.95398
2009-07-31 08:23:31 51°13.664 2°55.959 21.1559 1.025968 6.84072 11.95398
2009-07-31 08:23:36 51°13.664 2°55.959 21.1566 1.028957 6.862332 11.95398
2009-07-31 08:23:42 51°13.664 2°55.959 21.1563 1.024319 6.829138 11.919156
2009-07-31 08:23:48 51°13.664 2°55.959 21.1558 1.013702 6.752907 11.95398
2009-07-31 08:23:51 51°13.664 2°55.959 21.1548 1.021226 6.806927 11.95398
2009-07-31 08:23:57 51°13.664 2°55.959 21.1552 1.016279 6.771534 11.95398
2009-07-31 08:24:02 51°13.664 2°55.959 21.1554 1.016279 6.771534 11.95398
2009-07-31 08:24:08 51°13.664 2°55.959 21.1557 1.015866 6.768575 11.919156
2009-07-31 08:24:12 51°13.664 2°55.96 21.155 1.028957 6.862733 11.95398
2009-07-31 08:24:17 51°13.664 2°55.96 21.1546 1.022876 6.819037 11.95398
2009-07-31 08:24:22 51°13.664 2°55.96 21.1553 1.022463 6.816208 11.95398
2009-07-31 08:24:26 51°13.663 2°55.96 21.1555 1.021845 6.811766 11.95398
2009-07-31 08:24:32 51°13.663 2°55.96 21.1553 1.021845 6.811766 11.95398
2009-07-31 08:24:37 51°13.663 2°55.96 21.1539 1.027823 6.854717 11.95398
2009-07-31 08:24:42 51°13.663 2°55.96 21.1542 1.030297 6.872498 11.95398
2009-07-31 08:24:46 51°13.663 2°55.96 21.1548 1.029267 6.865222 11.95398
2009-07-31 08:24:52 51°13.663 2°55.96 21.1548 1.029782 6.86906 11.95398
2009-07-31 08:24:57 51°13.663 2°55.96 21.1541 1.028751 6.861651 11.95398
2009-07-31 08:25:02 51°13.663 2°55.96 21.1551 1.028751 6.861651 11.95398
2009-07-31 08:25:08 51°13.663 2°55.96 21.1553 1.031947 6.884621 11.95398
2009-07-31 08:25:12 51°13.663 2°55.96 21.1549 1.026793 6.84771 11.95398
2009-07-31 08:25:17 51°13.663 2°55.96 21.1553 1.039059 6.935906 11.95398
2009-07-31 08:25:22 51°13.663 2°55.96 21.1571 1.014629 6.760354 11.95398
2009-07-31 08:25:28 51°13.663 2°55.96 21.1554 1.017206 6.778985 11.95398
2009-07-31 08:25:32 51°13.662 2°55.96 21.1543 1.017206 6.778985 11.95398
2009-07-31 08:25:37 51°13.662 2°55.96 21.1525 1.007002 6.705753 11.95398
2009-07-31 08:25:42 51°13.662 2°55.96 21.1562 1.028854 6.862659 11.95398
2009-07-31 08:25:48 51°13.662 2°55.96 21.1566 1.031328 6.880442 11.95398
2009-07-31 08:25:52 51°13.662 2°55.96 21.1519 1.021433 6.809467 11.95398
2009-07-31 08:25:58 51°13.662 2°55.96 21.1527 1.029576 6.867979 11.95398
2009-07-31 08:26:02 51°13.662 2°55.96 21.1544 1.029576 6.867979 11.95398
2009-07-31 08:26:08 51°13.662 2°55.96 21.1572 1.028648 6.861311 11.95398
2009-07-31 08:26:12 51°13.661 2°55.96 21.158 1.032977 6.892568 11.95398
2009-07-31 08:26:16 51°13.661 2°55.96 21.1578 1.025556 6.839221 11.95398
2009-07-31 08:26:22 51°13.661 2°55.96 21.156 1.025968 6.842317 11.95398
2009-07-31 08:26:28 51°13.661 2°55.96 21.1546 1.012465 6.745343 11.988804
2009-07-31 08:26:32 51°13.661 2°55.96 21.1559 1.012465 6.745343 11.988804
2009-07-31 08:26:38 51°13.661 2°55.96 21.1562 1.020299 6.801588 11.988804
2009-07-31 08:26:42 51°13.661 2°55.959 21.1564 1.009063 6.720933 11.95398
2009-07-31 08:26:48 51°13.661 2°55.959 21.1584 1.028442 6.86023 11.95398
2009-07-31 08:26:52 51°13.66 2°55.959 21.159 1.016072 6.771372 11.95398
2009-07-31 08:26:58 51°13.66 2°55.96 21.1552 1.034008 6.900249 11.95398
2009-07-31 08:27:02 51°13.66 2°55.96 21.156 1.034008 6.900249 11.95398
2009-07-31 08:27:06 51°13.66 2°55.96 21.1575 1.03473 6.905438 11.988804
2009-07-31 08:27:12 51°13.66 2°55.96 21.1566 1.033184 6.894453 11.95398
2009-07-31 08:27:18 51°13.66 2°55.96 21.157 1.020402 6.802593 11.988804
2009-07-31 08:27:22 51°13.661 2°55.96 21.158 1.030504 6.875183 11.988804
2009-07-31 08:27:26 51°13.661 2°55.96 21.1575 1.036482 6.918311 11.988804
2009-07-31 08:27:32 51°13.661 2°55.96 21.1576 1.036482 6.918311 11.988804
2009-07-31 08:27:38 51°13.661 2°55.96 21.1566 1.028133 6.858274 11.95398
2009-07-31 08:27:42 51°13.661 2°55.96 21.1559 1.02102 6.807167 11.988804
2009-07-31 08:27:48 51°13.661 2°55.96 21.1565 1.022566 6.818275 11.95398
2009-07-31 08:27:52 51°13.661 2°55.959 21.1557 1.026999 6.850257 11.988804
2009-07-31 08:27:58 51°13.661 2°55.959 21.1559 1.02803 6.857666 11.988804
2009-07-31 08:28:02 51°13.661 2°55.959 21.1562 1.02803 6.857666 11.988804
2009-07-31 08:28:08 51°13.661 2°55.959 21.1548 1.028339 6.859889 11.988804
2009-07-31 08:28:12 51°13.661 2°55.959 21.1559 1.029267 6.866558 11.988804
2009-07-31 08:28:18 51°13.661 2°55.959 21.1561 1.019886 6.799288 11.988804
2009-07-31 08:28:22 51°13.661 2°55.959 21.1548 1.021433 6.810394 11.988804
2009-07-31 08:28:28 51°13.661 2°55.959 21.1559 1.034318 6.90301 11.988804
2009-07-31 08:28:32 51°13.661 2°55.959 21.156 1.034318 6.90301 11.988804
2009-07-31 08:28:37 51°13.661 2°55.959 21.1581 1.02803 6.8578 11.988804
2009-07-31 08:28:42 51°13.661 2°55.959 21.1587 1.028236 6.859282 11.988804
2009-07-31 08:28:48 51°13.661 2°55.959 21.1566 1.043698 6.97064 11.988804
2009-07-31 08:28:52 51°13.661 2°55.959 21.1552 1.033699 6.898562 11.988804
2009-07-31 08:28:58 51°13.661 2°55.959 21.1541 1.041327 6.953575 11.988804
2009-07-31 08:29:02 51°13.661 2°55.959 21.154 1.041327 6.953575 11.988804
2009-07-31 08:29:08 51°13.661 2°55.959 21.1544 1.033699 6.898696 11.988804
2009-07-31 08:29:12 51°13.661 2°55.959 21.1549 1.033184 6.89499 11.988804
2009-07-31 08:29:18 51°13.661 2°55.959 21.1541 1.032462 6.889801 11.988804
2009-07-31 08:29:22 51°13.661 2°55.959 21.1543 1.041636 6.9558 11.988804
2009-07-31 08:29:28 51°13.661 2°55.959 21.1548 1.030297 6.874236 11.988804
2009-07-31 08:29:32 51°13.661 2°55.959 21.1549 1.030297 6.874236 11.988804
2009-07-31 08:29:38 51°13.661 2°55.959 21.1554 1.032668 6.891283 11.988804
2009-07-31 08:29:42 51°13.661 2°55.959 21.1543 1.053079 7.038193 11.988804
2009-07-31 08:29:48 51°13.661 2°55.959 21.1541 1.057408 7.069528 11.988804
2009-07-31 08:29:52 51°13.661 2°55.959 21.1541 1.036895 6.921681 11.988804
2009-07-31 08:29:58 51°13.661 2°55.959 21.1546 1.041946 6.958026 11.988804
2009-07-31 08:30:02 51°13.661 2°55.959 21.154 1.041946 6.958026 11.988804
2009-07-31 08:30:08 51°13.661 2°55.959 21.1534 1.034833 6.906986 11.988804
2009-07-31 08:30:12 51°13.661 2°55.959 21.1518 1.034008 6.90092 11.988804
2009-07-31 08:30:18 51°13.661 2°55.959 21.1526 1.042461 6.961736 11.988804
2009-07-31 08:30:22 51°13.661 2°55.959 21.1535 1.029576 6.869182 11.988804
2009-07-31 08:30:28 51°13.661 2°55.959 21.1548 1.042873 6.964704 12.023628
2009-07-31 08:30:32 51°13.661 2°55.959 21.1571 1.042873 6.964704 12.023628
2009-07-31 08:30:38 51°13.661 2°55.959 21.1558 1.056377 7.061961 11.988804
2009-07-31 08:30:42 51°13.661 2°55.959 21.1552 1.049368 7.011461 12.023628
2009-07-31 08:30:48 51°13.661 2°55.959 21.1559 1.042255 6.960252 12.023628
2009-07-31 08:30:52 51°13.66 2°55.959 21.1563 1.057099 7.067162 11.988804
2009-07-31 08:30:58 51°13.66 2°55.959 21.1559 1.038544 6.933547 12.023628
2009-07-31 08:31:02 51°13.66 2°55.959 21.1548 1.038544 6.933547 12.023628
2009-07-31 08:31:08 51°13.66 2°55.959 21.1563 1.046378 6.989935 12.023628
2009-07-31 08:31:12 51°13.66 2°55.959 21.1575 1.042873 6.964568 12.023628
2009-07-31 08:31:18 51°13.66 2°55.959 21.1566 1.032359 6.888925 12.023628
2009-07-31 08:31:22 51°13.66 2°55.959 21.1563 1.027823 6.856318 11.988804
2009-07-31 08:31:28 51°13.66 2°55.959 21.1555 1.056481 7.062567 12.023628
2009-07-31 08:31:32 51°13.66 2°55.959 21.1544 1.056481 7.062567 12.023628
2009-07-31 08:31:37 51°13.66 2°55.959 21.1521 1.048955 7.008356 12.023628
2009-07-31 08:31:42 51°13.66 2°55.959 21.1523 1.050914 7.022325 12.023628
2009-07-31 08:31:48 51°13.66 2°55.959 21.1528 1.034111 6.901527 12.023628
2009-07-31 08:31:52 51°13.66 2°55.959 21.1529 1.04411 6.973472 12.023628
2009-07-31 08:31:56 51°13.66 2°55.959 21.1535 1.0538 7.043117 12.023628
2009-07-31 08:32:02 51°13.66 2°55.959 21.1536 1.0538 7.043117 12.023628
2009-07-31 08:32:08 51°13.66 2°55.959 21.1542 1.043183 6.966658 12.023628
2009-07-31 08:32:12 51°13.66 2°55.959 21.1548 1.036276 6.916963 12.023628
2009-07-31 08:32:18 51°13.66 2°55.959 21.1546 1.039678 6.941436 12.023628
2009-07-31 08:32:22 51°13.66 2°55.959 21.1551 1.055553 7.055607 12.023628
2009-07-31 08:32:28 51°13.66 2°55.959 21.1553 1.046687 6.991753 12.023628
2009-07-31 08:32:32 51°13.66 2°55.959 21.1559 1.046687 6.991753 12.023628
2009-07-31 08:32:38 51°13.66 2°55.959 21.1549 1.049058 7.008825 12.023628
2009-07-31 08:32:42 51°13.66 2°55.959 21.1551 1.062769 7.107619 12.023628
2009-07-31 08:32:48 51°13.66 2°55.959 21.1539 1.037307 6.924109 12.023628
2009-07-31 08:32:52 51°13.66 2°55.959 21.1561 1.047409 6.996812 12.058452
2009-07-31 08:32:58 51°13.66 2°55.959 21.1584 1.058027 7.073298 12.023628
2009-07-31 08:33:02 51°13.66 2°55.959 21.1582 1.058027 7.073298 12.023628
2009-07-31 08:33:06 51°13.66 2°55.959 21.1556 1.057614 7.070189 12.023628
2009-07-31 08:33:12 51°13.66 2°55.959 21.1545 1.04308 6.96551 12.023628
2009-07-31 08:33:18 51°13.66 2°55.959 21.1545 1.04411 6.972929 12.023628
2009-07-31 08:33:22 51°13.66 2°55.959 21.1539 1.049883 7.014355 12.058452
2009-07-31 08:33:28 51°13.66 2°55.958 21.1543 1.058645 7.07748 12.058452
2009-07-31 08:33:32 51°13.66 2°55.958 21.154 1.058645 7.07748 12.058452
2009-07-31 08:33:38 51°13.66 2°55.958 21.1549 1.047821 6.999509 12.023628
2009-07-31 08:33:42 51°13.661 2°55.958 21.1546 1.056068 7.058771 12.058452
2009-07-31 08:33:48 51°13.661 2°55.959 21.1548 1.061016 7.094432 12.023628
2009-07-31 08:33:52 51°13.661 2°55.959 21.1539 1.064934 7.122536 12.058452
2009-07-31 08:33:58 51°13.661 2°55.959 21.1523 1.061841 7.100239 12.058452
2009-07-31 08:34:02 51°13.661 2°55.959 21.152 1.061841 7.100239 12.058452
2009-07-31 08:34:08 51°13.661 2°55.959 21.1519 1.058542 7.076324 12.058452
2009-07-31 08:34:12 51°13.661 2°55.959 21.1531 1.057718 7.070381 12.058452
2009-07-31 08:34:18 51°13.661 2°55.959 21.1515 1.063697 7.113478 12.058452
2009-07-31 08:34:22 51°13.661 2°55.959 21.1516 1.066274 7.131922 12.058452
2009-07-31 08:34:28 51°13.661 2°55.959 21.1552 1.045863 6.984865 12.058452
2009-07-31 08:34:32 51°13.661 2°55.959 21.161 1.045863 6.984865 12.058452
2009-07-31 08:34:38 51°13.661 2°55.959 21.1584 1.05813 7.073215 12.023628
2009-07-31 08:34:42 51°13.661 2°55.959 21.1531 1.080912 7.237414 12.058452
2009-07-31 08:34:48 51°13.661 2°55.958 21.1501 1.062666 7.105769 12.058452
2009-07-31 08:34:52 51°13.661 2°55.959 21.1487 1.065964 7.129415 12.058452
2009-07-31 08:34:57 51°13.661 2°55.959 21.1507 1.056687 7.062541 12.058452
2009-07-31 08:35:02 51°13.661 2°55.959 21.153 1.056687 7.062541 12.058452
2009-07-31 08:35:08 51°13.661 2°55.959 21.1528 1.076479 7.205133 12.058452
2009-07-31 08:35:13 51°13.661 2°55.959 21.1531 1.073181 7.181327 12.058452
2009-07-31 08:35:18 51°13.661 2°55.959 21.1539 1.048543 7.003615 12.058452
2009-07-31 08:35:23 51°13.661 2°55.959 21.1535 1.071531 7.169287 12.058452
2009-07-31 08:35:28 51°13.662 2°55.959 21.1535 1.066171 7.130485 12.058452
2009-07-31 08:35:33 51°13.662 2°55.959 21.1543 1.066171 7.130485 12.058452
2009-07-31 08:35:38 51°13.662 2°55.959 21.1541 1.067202 7.137919 12.058452
2009-07-31 08:35:42 51°13.662 2°55.959 21.1527 1.066274 7.131229 12.058452
2009-07-31 08:35:47 51°13.662 2°55.959 21.1518 1.07782 7.214385 12.058452
2009-07-31 08:35:53 51°13.662 2°55.959 21.1516 1.068232 7.145075 12.058452
2009-07-31 08:35:58 51°13.662 2°55.959 21.1512 1.079778 7.228383 12.058452
2009-07-31 08:36:02 51°13.662 2°55.959 21.1511 1.079778 7.228383 12.058452
2009-07-31 08:36:08 51°13.662 2°55.959 21.1509 1.069573 7.154601 12.058452
2009-07-31 08:36:13 51°13.662 2°55.959 21.1516 1.073387 7.182116 12.093276
2009-07-31 08:36:18 51°13.662 2°55.959 21.1509 1.075964 7.200572 12.093276
2009-07-31 08:36:22 51°13.662 2°55.959 21.1518 1.07617 7.20206 12.093276
2009-07-31 08:36:28 51°13.661 2°55.959 21.1523 1.078954 7.222008 12.093276
2009-07-31 08:36:33 51°13.661 2°55.959 21.153 1.078954 7.222008 12.093276
2009-07-31 08:36:38 51°13.661 2°55.959 21.1522 1.085242 7.267411 12.058452
2009-07-31 08:36:42 51°13.661 2°55.959 21.1521 1.085036 7.265781 12.093276
2009-07-31 08:36:48 51°13.661 2°55.959 21.1526 1.082974 7.250892 12.058452
2009-07-31 08:36:53 51°13.662 2°55.959 21.1508 1.086685 7.277552 12.093276
2009-07-31 08:36:58 51°13.662 2°55.959 21.1508 1.074211 7.187367 12.058452
2009-07-31 08:37:03 51°13.662 2°55.959 21.1513 1.074211 7.187367 12.058452
2009-07-31 08:37:08 51°13.662 2°55.959 21.1516 1.075242 7.194805 12.093276
2009-07-31 08:37:13 51°13.662 2°55.959 21.1503 1.070603 7.161201 12.093276
2009-07-31 08:37:18 51°13.662 2°55.959 21.1507 1.071634 7.168636 12.093276
2009-07-31 08:37:23 51°13.662 2°55.959 21.1506 1.082974 7.250328 12.093276
2009-07-31 08:37:28 51°13.662 2°55.959 21.1511 1.085758 7.270286 12.093276
2009-07-31 08:37:33 51°13.662 2°55.959 21.1503 1.085758 7.270286 12.093276
2009-07-31 08:37:38 51°13.662 2°55.959 21.1484 1.091325 7.310497 12.093276
2009-07-31 08:37:42 51°13.662 2°55.959 21.1491 1.082356 7.245581 12.093276
2009-07-31 08:37:48 51°13.662 2°55.959 21.1507 1.078335 7.216561 12.093276
2009-07-31 08:37:52 51°13.662 2°55.959 21.1505 1.082768 7.248417 12.093276
2009-07-31 08:37:58 51°13.662 2°55.959 21.1504 1.07916 7.222232 12.093276
2009-07-31 08:38:02 51°13.662 2°55.959 21.1496 1.07916 7.222232 12.093276
2009-07-31 08:38:08 51°13.662 2°55.959 21.1488 1.078954 7.220744 12.093276
2009-07-31 08:38:13 51°13.662 2°55.959 21.1501 1.076583 7.203494 12.093276
2009-07-31 08:38:18 51°13.662 2°55.959 21.1458 1.089366 7.295779 12.093276
2009-07-31 08:38:22 51°13.662 2°55.959 21.1493 1.076273 7.200983 12.093276
2009-07-31 08:38:28 51°13.662 2°55.959 21.1564 1.072871 7.176582 12.093276